Data for 10/14/2011

Time Sea-Level Adjusted Pressure Absolute Pressure Temperature Relative Humidity Dew Point Precipitation   
(mb) (inHg) (mb) (inHg) (C) (F) (%) (C) (F) (mm) (in)
00:01 1022 30.18 851 25.13 6.1 43 58 -1.4 29.5 -90.5 -3.563
00:02 1022 30.18 851 25.13 6.1 42.9 57 -1.8 28.8 -90.5 -3.563
00:03 1022 30.18 851 25.13 6.1 42.9 57 -1.9 28.6 -90.5 -3.563
00:04 1022 30.18 851 25.13 6.1 43 57 -1.7 29 -90.5 -3.563
00:05 1022 30.18 851 25.13 6.1 43 57 -1.8 28.7 -90.5 -3.563
00:06 1022 30.18 851 25.13 6.1 43 57 -1.8 28.8 -90.5 -3.563
00:07 1022 30.18 851 25.13 6.1 43.1 56 -1.9 28.6 -90.5 -3.563
00:08 1022 30.18 851 25.13 6.1 43 60 -1 30.3 -90.5 -3.563
00:09 1022 30.18 851 25.13 6.1 42.9 61 -0.8 30.6 -90.5 -3.563
00:10 1022 30.18 851 25.13 6 42.7 61 -1 30.2 -90.5 -3.563
00:11 1022 30.18 851 25.13 5.9 42.6 63 -0.6 30.9 -90.5 -3.563
00:12 1022 30.18 851 25.13 5.9 42.5 61 -1 30.2 -90.4 -3.559
00:13 1022 30.18 851 25.13 5.8 42.5 59 -1.5 29.3 -90.4 -3.559
00:14 1022 30.18 851 25.13 5.8 42.5 58 -1.8 28.7 -90.4 -3.559
00:15 1022 30.18 851 25.13 5.8 42.5 64 -0.5 31.2 -90.4 -3.559
00:16 1022 30.18 851 25.13 5.8 42.4 59 -1.6 29.1 -90.4 -3.559
00:17 1022 30.18 851 25.13 5.9 42.6 58 -1.7 29 -90.4 -3.559
00:18 1022 30.18 851 25.13 6.1 43 57 -1.7 28.9 -90.4 -3.559
00:19 1022 30.18 851 25.13 6.3 43.3 56 -1.8 28.8 -90.4 -3.559
00:20 1022 30.18 851 25.13 6.4 43.5 57 -1.4 29.5 -90.4 -3.559
00:21 1022 30.18 851 25.13 6.5 43.7 59 -0.9 30.4 -90.4 -3.559
00:22 1022 30.18 851 25.13 6.6 43.8 59 -0.9 30.4 -90.4 -3.559
00:23 1022 30.18 851 25.13 6.6 43.9 58 -1.2 29.9 -90.4 -3.559
00:24 1022 30.18 851 25.13 6.6 43.8 58 -1.1 30.1 -90.4 -3.559
00:25 1022 30.18 851 25.13 6.6 43.8 58 -1.2 29.9 -90.4 -3.559
00:26 1022 30.18 851 25.13 6.6 43.8 62 -0.3 31.5 -90.4 -3.559
00:27 1022 30.18 851 25.13 6.4 43.5 61 -0.5 31 -90.4 -3.559
00:28 1022 30.18 851 25.13 6.3 43.3 65 0.3 32.5 -90.4 -3.559
00:29 1022 30.18 851 25.13 6.1 42.9 65 -0.1 31.9 -90.4 -3.559
00:30 1022 30.18 851 25.13 5.9 42.6 65 -0.1 31.9 -90.3 -3.555
00:31 1022 30.18 851 25.13 5.8 42.4 69 0.4 32.8 -90.3 -3.555
00:32 1022 30.18 851 25.13 5.6 42.1 67 -0.1 31.9 -90.3 -3.555
00:33 1022 30.18 851 25.13 5.5 42 68 0.1 32.1 -90.3 -3.555
00:34 1022 30.18 851 25.13 5.5 41.9 67 -0.1 31.9 -90.2 -3.551
00:35 1022 30.18 851 25.13 5.4 41.7 65 -0.6 30.9 -90.2 -3.551
00:36 1022 30.18 851 25.13 5.5 41.8 61 -1.4 29.5 -90.2 -3.551
00:37 1022 30.18 851 25.13 5.6 42 60 -1.5 29.3 -90.2 -3.551
00:38 1022 30.18 851 25.13 5.7 42.2 57 -2.2 28.1 -90.3 -3.555
00:39 1022 30.18 851 25.13 5.8 42.5 57 -2.1 28.2 -90.3 -3.555
00:40 1022 30.18 851 25.13 5.9 42.7 60 -1.3 29.7 -90.3 -3.555
00:41 1022 30.18 851 25.13 5.9 42.7 68 0.6 33 -90.3 -3.555
00:42 1022 30.18 851 25.13 5.8 42.4 70 0.6 33.2 -90.3 -3.555
00:43 1022 30.18 851 25.13 5.6 42 69 0.3 32.5 -90.2 -3.551
00:44 1022 30.18 851 25.13 5.5 41.8 68 0.1 32.2 -90.2 -3.551
00:45 1022 30.18 851 25.13 5.4 41.7 66 -0.4 31.3 -90.2 -3.551
00:46 1022 30.18 851 25.13 5.3 41.6 64 -0.8 30.5 -90.2 -3.551
00:47 1022 30.18 851 25.13 5.4 41.7 65 -0.8 30.6 -90.2 -3.551
00:48 1022 30.18 851 25.13 5.4 41.8 64 -0.8 30.6 -90.2 -3.551
00:49 1022 30.18 851 25.13 5.5 41.9 65 -0.6 30.8 -90.2 -3.551
00:50 1022 30.18 851 25.13 5.5 41.9 64 -0.8 30.6 -90.3 -3.555
00:51 1022 30.18 851 25.13 5.5 41.9 65 -0.6 31 -90.3 -3.555
00:52 1022 30.18 851 25.13 5.5 41.8 64 -0.7 30.8 -90.3 -3.555
00:53 1022 30.18 851 25.13 5.4 41.8 67 -0.2 31.7 -90.3 -3.555
00:54 1022 30.18 851 25.13 5.4 41.7 67 -0.3 31.5 -90.2 -3.551
00:55 1022 30.18 851 25.13 5.4 41.6 64 -0.8 30.5 -90.2 -3.551
00:56 1022 30.18 851 25.13 5.4 41.7 65 -0.7 30.7 -90.2 -3.551
00:57 1022 30.18 851 25.13 5.4 41.6 65 -0.7 30.7 -90.2 -3.551
00:58 1022 30.18 851 25.13 5.4 41.7 68 -0.1 31.9 -90.3 -3.555
00:59 1022 30.18 851 25.13 5.3 41.6 68 -0.1 31.8 -90.2 -3.551
01:00 1022 30.18 851 25.13 5.3 41.5 71 0.5 32.9 -90.2 -3.551
01:01 1022 30.18 851 25.13 5.2 41.3 71 0.3 32.5 -90.2 -3.551
01:02 1022 30.18 851 25.13 5.1 41.3 69 -0.1 31.8 -90.2 -3.551
01:03 1022 30.18 851 25.13 5.1 41.2 70 0.1 32.2 -90.2 -3.551
01:04 1022 30.18 851 25.13 5.1 41.1 66 -0.8 30.6 -90.2 -3.551
01:05 1022 30.18 851 25.13 5.2 41.3 64 -1.1 30 -90.2 -3.551
01:06 1022 30.18 851 25.13 5.3 41.5 67 -0.4 31.3 -90.2 -3.551
01:07 1022 30.18 851 25.13 5.3 41.6 64 -0.9 30.4 -90.2 -3.551
01:08 1022 30.18 851 25.13 5.3 41.6 64 -0.9 30.4 -90.3 -3.555
01:09 1022 30.18 851 25.13 5.4 41.7 64 -0.9 30.4 -90.3 -3.555
01:10 1022 30.18 851 25.13 5.4 41.8 62 -1.3 29.7 -90.3 -3.555
01:11 1022 30.18 851 25.13 5.5 41.8 62 -1.3 29.7 -90.3 -3.555
01:12 1022 30.18 851 25.13 5.5 42 60 -1.6 29.2 -90.4 -3.559
01:13 1022 30.18 851 25.13 5.6 42.2 59 -1.8 28.7 -90.4 -3.559
01:14 1022 30.18 851 25.13 5.7 42.3 58 -1.8 28.7 -90.4 -3.559
01:15 1022 30.18 851 25.13 5.8 42.5 66 -0.1 31.8 -90.4 -3.559
01:16 1022 30.18 851 25.13 5.9 42.5 64 -0.5 31.2 -90.4 -3.559
01:17 1022 30.18 852 25.16 5.7 42.3 67 0.1 32.2 -90.4 -3.559
01:18 1022 30.18 851 25.13 5.7 42.2 68 0.3 32.5 -90.4 -3.559
01:19 1022 30.18 851 25.13 5.5 41.9 70 0.5 32.8 -90.3 -3.555
01:20 1022 30.18 851 25.13 5.4 41.8 70 0.4 32.7 -90.3 -3.555
01:21 1022 30.18 852 25.16 5.3 41.5 70 0.2 32.3 -90.3 -3.555
01:22 1022 30.18 852 25.16 5.2 41.3 69 -0 31.9 -90.3 -3.555
01:23 1022 30.18 851 25.13 5.2 41.3 69 -0 32 -90.3 -3.555
01:24 1022 30.18 851 25.13 5.2 41.3 69 0 32 -90.3 -3.555
01:25 1022 30.18 852 25.16 5.2 41.3 70 0.2 32.4 -90.3 -3.555
01:26 1022 30.18 852 25.16 5.1 41.2 71 0.3 32.5 -90.3 -3.555
01:27 1022 30.18 852 25.16 5.1 41.2 72 0.5 33 -90.2 -3.551
01:28 1022 30.18 852 25.16 5 41 74 0.7 33.2 -90.2 -3.551
01:29 1022 30.18 852 25.16 4.9 40.9 73 0.5 33 -90.1 -3.547
01:30 1022 30.18 852 25.16 4.9 40.8 75 0.8 33.4 -90.1 -3.547
01:31 1022 30.18 852 25.16 4.8 40.6 75 0.7 33.3 -90 -3.543
01:32 1022 30.18 851 25.13 4.7 40.5 76 0.8 33.4 -90 -3.543
01:33 1022 30.18 851 25.13 4.7 40.4 75 0.6 33 -90 -3.543
01:34 1022 30.18 851 25.13 4.7 40.4 75 0.6 33.2 -90 -3.543
01:35 1022 30.18 851 25.13 4.6 40.3 76 0.8 33.4 -90 -3.543
01:36 1022 30.18 851 25.13 4.7 40.4 76 0.9 33.6 -90 -3.543
01:37 1022 30.18 851 25.13 4.6 40.3 77 0.9 33.6 -89.9 -3.539
01:38 1022 30.18 851 25.13 4.6 40.2 78 1.2 34.1 -89.9 -3.539
01:39 1022 30.18 851 25.13 4.5 40.1 80 1.3 34.3 -89.8 -3.535
01:40 1022 30.18 851 25.13 4.4 40 79 1.2 34.1 -89.8 -3.535
01:41 1022 30.18 851 25.13 4.4 39.9 77 0.7 33.3 -89.8 -3.535
01:42 1022 30.18 851 25.13 4.5 40 77 0.8 33.4 -89.8 -3.535
01:43 1022 30.18 851 25.13 4.5 40.2 77 0.9 33.5 -89.8 -3.535
01:44 1022 30.18 851 25.13 4.6 40.2 77 0.9 33.6 -89.8 -3.535
01:45 1022 30.18 851 25.13 4.6 40.2 78 1 33.9 -89.8 -3.535
01:46 1022 30.18 851 25.13 4.6 40.2 78 1.1 33.9 -89.8 -3.535
01:47 1022 30.18 851 25.13 4.5 40.2 79 1.2 34.1 -89.8 -3.535
01:48 1022 30.18 851 25.13 4.5 40.1 79 1.2 34.2 -89.8 -3.535
01:49 1022 30.18 851 25.13 4.5 40.1 79 1.2 34.2 -89.8 -3.535
01:50 1022 30.18 851 25.13 4.5 40.1 79 1.2 34.2 -89.7 -3.531
01:51 1022 30.18 851 25.13 4.5 40.1 79 1.2 34.1 -89.7 -3.531
01:52 1022 30.18 851 25.13 4.5 40.1 80 1.3 34.3 -89.7 -3.531
01:53 1022 30.18 851 25.13 4.5 40 80 1.3 34.4 -89.7 -3.531
01:54 1022 30.18 851 25.13 4.4 40 81 1.4 34.5 -89.7 -3.531
01:55 1022 30.18 851 25.13 4.4 39.9 81 1.4 34.4 -89.7 -3.531
01:56 1022 30.18 851 25.13 4.3 39.8 81 1.3 34.3 -89.7 -3.531
01:57 1022 30.18 851 25.13 4.3 39.7 81 1.3 34.4 -89.7 -3.531
01:58 1022 30.18 851 25.13 4.3 39.8 82 1.5 34.6 -89.7 -3.531
01:59 1022 30.18 851 25.13 4.2 39.6 82 1.4 34.5 -89.7 -3.531
02:00 1022 30.18 851 25.13 4.2 39.6 81 1.3 34.3 -89.7 -3.531
02:01 1022 30.18 851 25.13 4.3 39.7 80 1.2 34.2 -89.7 -3.531
02:02 1022 30.18 851 25.13 4.3 39.8 80 1.3 34.3 -89.7 -3.531
02:03 1022 30.18 851 25.13 4.4 39.9 81 1.4 34.5 -89.7 -3.531
02:04 1022 30.18 851 25.13 4.4 39.9 82 1.5 34.7 -89.7 -3.531
02:05 1022 30.18 851 25.13 4.3 39.8 82 1.5 34.6 -89.7 -3.531
02:06 1022 30.18 851 25.13 4.3 39.8 82 1.5 34.7 -89.7 -3.531
02:07 1022 30.18 851 25.13 4.3 39.8 82 1.5 34.8 -89.7 -3.531
02:08 1022 30.18 851 25.13 4.4 39.9 82 1.6 34.8 -89.7 -3.531
02:09 1022 30.18 851 25.13 4.3 39.8 82 1.5 34.7 -89.7 -3.531
02:10 1022 30.18 851 25.13 4.3 39.8 82 1.6 34.9 -89.7 -3.531
02:11 1022 30.18 851 25.13 4.4 39.8 82 1.6 34.9 -89.7 -3.531
02:12 1022 30.18 851 25.13 4.4 39.8 82 1.6 34.9 -89.7 -3.531
02:13 1022 30.18 851 25.13 4.4 39.8 82 1.6 34.9 -89.7 -3.531
02:14 1022 30.18 851 25.13 4.3 39.8 83 1.7 35 -89.7 -3.531
02:15 1022 30.18 851 25.13 4.3 39.8 83 1.7 35.1 -89.7 -3.531
02:16 1022 30.18 851 25.13 4.3 39.8 83 1.7 35.1 -89.7 -3.531
02:17 1022 30.18 851 25.13 4.3 39.8 83 1.7 35.1 -89.7 -3.531
02:18 1022 30.18 851 25.13 4.3 39.7 83 1.7 35.1 -89.7 -3.531
02:19 1022 30.18 851 25.13 4.3 39.7 84 1.8 35.2 -89.7 -3.531
02:20 1022 30.18 851 25.13 4.3 39.7 84 1.9 35.4 -89.7 -3.531
02:21 1022 30.18 851 25.13 4.2 39.5 84 1.8 35.2 -89.7 -3.531
02:22 1022 30.18 851 25.13 4.2 39.5 83 1.5 34.8 -89.7 -3.531
02:23 1022 30.18 851 25.13 4.2 39.6 82 1.3 34.4 -89.7 -3.531
02:24 1022 30.18 851 25.13 4.3 39.8 81 1.3 34.4 -89.7 -3.531
02:25 1022 30.18 851 25.13 4.4 40 79 1.1 34 -89.8 -3.535
02:26 1022 30.18 851 25.13 4.6 40.2 77 0.9 33.6 -89.8 -3.535
02:27 1022 30.18 851 25.13 4.7 40.4 77 1 33.7 -89.8 -3.535
02:28 1022 30.18 851 25.13 4.8 40.6 77 1.2 34.1 -89.8 -3.535
02:29 1022 30.18 851 25.13 4.8 40.6 76 1 33.8 -89.9 -3.539
02:30 1022 30.18 851 25.13 4.8 40.7 76 1 33.8 -89.9 -3.539
02:31 1022 30.18 851 25.13 4.8 40.7 76 1 33.8 -89.9 -3.539
02:32 1022 30.18 851 25.13 4.9 40.7 76 1 33.7 -89.9 -3.539
02:33 1022 30.18 851 25.13 4.9 40.8 75 0.9 33.6 -90 -3.543
02:34 1022 30.18 851 25.13 4.9 40.8 75 0.9 33.6 -90 -3.543
02:35 1022 30.18 851 25.13 4.9 40.9 74 0.8 33.4 -90 -3.543
02:36 1022 30.18 851 25.13 4.9 40.9 76 1 33.9 -90 -3.543
02:37 1022 30.18 851 25.13 4.9 40.8 76 1.1 34 -90 -3.543
02:38 1022 30.18 851 25.13 4.9 40.7 77 1.1 34 -90 -3.543
02:39 1022 30.18 851 25.13 4.8 40.6 75 0.8 33.4 -90 -3.543
02:40 1022 30.18 851 25.13 4.8 40.7 73 0.3 32.6 -90 -3.543
02:41 1022 30.18 851 25.13 4.9 40.8 72 0.3 32.6 -90 -3.543
02:42 1022 30.18 851 25.13 5 40.9 74 0.7 33.2 -90.1 -3.547
02:43 1022 30.18 851 25.13 5 41 73 0.6 33 -90.1 -3.547
02:44 1022 30.18 851 25.13 5 41 74 0.8 33.5 -90.1 -3.547
02:45 1022 30.18 851 25.13 4.9 40.9 75 0.9 33.6 -90.1 -3.547
02:46 1022 30.18 851 25.13 4.9 40.7 75 0.8 33.5 -90.1 -3.547
02:47 1022 30.18 851 25.13 4.8 40.7 77 1.1 33.9 -90.1 -3.547
02:48 1022 30.18 851 25.13 4.8 40.6 77 1 33.8 -90.1 -3.547
02:49 1022 30.18 851 25.13 4.7 40.5 78 1.2 34.2 -90.1 -3.547
02:50 1022 30.18 851 25.13 4.6 40.3 79 1.2 34.2 -90 -3.543
02:51 1022 30.18 851 25.13 4.6 40.2 79 1.3 34.3 -90 -3.543
02:52 1022 30.18 851 25.13 4.5 40.1 80 1.3 34.3 -90 -3.543
02:53 1022 30.18 851 25.13 4.4 40 81 1.4 34.5 -90 -3.543
02:54 1022 30.18 851 25.13 4.4 39.9 81 1.5 34.7 -89.9 -3.539
02:55 1022 30.18 851 25.13 4.4 39.9 80 1.3 34.3 -89.9 -3.539
02:56 1022 30.18 851 25.13 4.4 39.9 80 1.3 34.3 -89.9 -3.539
02:57 1022 30.18 851 25.13 4.4 39.9 80 1.2 34.2 -89.9 -3.539
02:58 1022 30.18 851 25.13 4.4 40 78 0.9 33.6 -89.9 -3.539
02:59 1022 30.18 851 25.13 4.5 40.2 79 1.2 34.2 -89.9 -3.539
03:00 1022 30.18 851 25.13 4.6 40.2 80 1.4 34.6 -89.9 -3.539
03:01 1022 30.18 851 25.13 4.5 40.1 81 1.5 34.8 -89.9 -3.539
03:02 1022 30.18 851 25.13 4.4 40 82 1.6 34.9 -89.9 -3.539
03:03 1022 30.18 851 25.13 4.3 39.8 83 1.6 34.9 -89.8 -3.535
03:04 1022 30.18 851 25.13 4.3 39.7 83 1.7 35.1 -89.8 -3.535
03:05 1022 30.18 851 25.13 4.2 39.6 84 1.8 35.2 -89.8 -3.535
03:06 1022 30.18 851 25.13 4.2 39.5 85 1.8 35.2 -89.8 -3.535
03:07 1022 30.18 851 25.13 4.1 39.4 85 1.8 35.3 -89.8 -3.535
03:08 1022 30.18 851 25.13 4.1 39.3 85 1.8 35.3 -89.8 -3.535
03:09 1022 30.18 851 25.13 4 39.2 86 1.8 35.3 -89.7 -3.531
03:10 1022 30.18 851 25.13 4 39.2 86 1.8 35.2 -89.7 -3.531
03:11 1022 30.18 851 25.13 4 39.2 85 1.8 35.2 -89.7 -3.531
03:12 1022 30.18 851 25.13 4 39.1 85 1.7 35.1 -89.7 -3.531
03:13 1022 30.18 851 25.13 4 39.1 85 1.7 35.1 -89.7 -3.531
03:14 1022 30.18 851 25.13 4 39.2 86 1.8 35.2 -89.7 -3.531
03:15 1022 30.18 851 25.13 4 39.2 86 1.8 35.3 -89.7 -3.531
03:16 1022 30.18 851 25.13 3.9 39.1 86 1.8 35.3 -89.7 -3.531
03:17 1022 30.18 851 25.13 3.9 39.1 86 1.8 35.3 -89.7 -3.531
03:18 1022 30.18 851 25.13 3.9 39 86 1.8 35.2 -89.7 -3.531
03:19 1022 30.18 851 25.13 3.9 39 86 1.8 35.3 -89.7 -3.531
03:20 1022 30.18 851 25.13 3.9 39 87 1.8 35.3 -89.7 -3.531
03:21 1022 30.18 851 25.13 3.9 39 87 1.8 35.3 -89.7 -3.531
03:22 1022 30.18 851 25.13 3.9 39 86 1.8 35.3 -89.7 -3.531
03:23 1022 30.18 851 25.13 3.9 39 87 1.8 35.3 -89.7 -3.531
03:24 1022 30.18 851 25.13 3.8 38.9 87 1.8 35.3 -89.7 -3.531
03:25 1022 30.18 851 25.13 3.9 39 87 1.8 35.3 -89.7 -3.531
03:26 1022 30.18 851 25.13 3.8 38.9 87 1.8 35.3 -89.7 -3.531
03:27 1022 30.18 851 25.13 3.8 38.9 87 1.8 35.3 -89.7 -3.531
03:28 1022 30.18 851 25.13 3.8 38.9 87 1.8 35.3 -89.7 -3.531
03:29 1022 30.18 851 25.13 3.8 38.9 87 1.8 35.3 -89.7 -3.531
03:30 1022 30.18 851 25.13 3.8 38.9 87 1.9 35.3 -89.7 -3.531
03:31 1022 30.18 851 25.13 3.8 38.8 87 1.8 35.2 -89.7 -3.531
03:32 1022 30.18 851 25.13 3.8 38.9 87 1.8 35.2 -89.7 -3.531
03:33 1022 30.18 851 25.13 3.8 38.8 87 1.8 35.3 -89.7 -3.531
03:34 1022 30.18 851 25.13 3.8 38.9 87 1.8 35.3 -89.7 -3.531
03:35 1022 30.18 851 25.13 3.8 38.9 87 1.8 35.3 -89.7 -3.531
03:36 1022 30.18 851 25.13 3.8 38.9 87 1.8 35.3 -89.7 -3.531
03:37 1022 30.18 851 25.13 3.8 38.8 87 1.8 35.3 -89.7 -3.531
03:38 1022 30.18 851 25.13 3.8 38.8 87 1.8 35.3 -89.7 -3.531
03:39 1022 30.18 851 25.13 3.8 38.9 87 1.9 35.4 -89.7 -3.531
03:40 1022 30.18 851 25.13 3.8 38.8 87 1.9 35.4 -89.7 -3.531
03:41 1022 30.18 851 25.13 3.8 38.8 87 1.9 35.4 -89.7 -3.531
03:42 1022 30.18 851 25.13 3.8 38.8 88 1.9 35.4 -89.7 -3.531
03:43 1022 30.18 851 25.13 3.8 38.8 88 1.9 35.5 -89.7 -3.531
03:44 1022 30.18 851 25.13 3.8 38.8 88 2 35.5 -89.7 -3.531
03:45 1022 30.18 851 25.13 3.8 38.8 88 2 35.6 -89.7 -3.531
03:46 1022 30.18 851 25.13 3.7 38.7 88 1.9 35.5 -89.7 -3.531
03:47 1022 30.18 851 25.13 3.7 38.7 88 2 35.5 -89.7 -3.531
03:48 1022 30.18 851 25.13 3.8 38.8 88 2 35.6 -89.7 -3.531
03:49 1022 30.18 851 25.13 3.8 38.8 88 2 35.6 -89.7 -3.531
03:50 1022 30.18 851 25.13 3.8 38.8 88 2 35.6 -89.7 -3.531
03:51 1022 30.18 851 25.13 3.7 38.7 88 2 35.6 -89.7 -3.531
03:52 1022 30.18 851 25.13 3.7 38.7 88 2 35.5 -89.6 -3.528
03:53 1022 30.18 851 25.13 3.7 38.7 88 1.9 35.4 -89.6 -3.528
03:54 1022 30.18 851 25.13 3.8 38.8 87 1.9 35.3 -89.6 -3.528
03:55 1022 30.18 851 25.13 3.8 38.9 87 1.8 35.3 -89.6 -3.528
03:56 1022 30.18 851 25.13 3.9 39 86 1.7 35.1 -89.6 -3.528
03:57 1022 30.18 851 25.13 3.9 39 86 1.7 35.1 -89.6 -3.528
03:58 1022 30.18 851 25.13 3.9 39 86 1.8 35.2 -89.6 -3.528
03:59 1022 30.18 851 25.13 3.9 39 86 1.7 35.1 -89.6 -3.528
04:00 1022 30.18 851 25.13 3.9 38.9 85 1.6 34.8 -89.6 -3.528
04:01 1022 30.18 851 25.13 3.9 39 85 1.6 34.9 -89.6 -3.528
04:02 1022 30.18 851 25.13 3.9 39 85 1.6 34.9 -89.6 -3.528
04:03 1022 30.18 851 25.13 3.9 38.9 86 1.7 35 -89.6 -3.528
04:04 1022 30.18 851 25.13 3.8 38.9 86 1.7 35 -89.6 -3.528
04:05 1022 30.18 851 25.13 3.8 38.9 86 1.8 35.2 -89.6 -3.528
04:06 1022 30.18 851 25.13 3.8 38.9 87 1.8 35.3 -89.6 -3.528
04:07 1022 30.18 851 25.13 3.8 38.8 87 1.8 35.3 -89.6 -3.528
04:08 1022 30.18 851 25.13 3.7 38.7 87 1.8 35.3 -89.6 -3.528
04:09 1022 30.18 851 25.13 3.7 38.7 87 1.8 35.3 -89.6 -3.528
04:10 1022 30.18 851 25.13 3.7 38.7 87 1.9 35.3 -89.6 -3.528
04:11 1022 30.18 851 25.13 3.7 38.7 88 1.9 35.4 -89.6 -3.528
04:12 1022 30.18 851 25.13 3.8 38.8 88 1.9 35.4 -89.6 -3.528
04:13 1022 30.18 851 25.13 3.8 38.8 88 1.9 35.4 -89.6 -3.528
04:14 1022 30.18 851 25.13 3.8 38.8 87 1.8 35.3 -89.6 -3.528
04:15 1022 30.18 851 25.13 3.8 38.8 87 1.8 35.3 -89.6 -3.528
04:16 1022 30.18 851 25.13 3.8 38.8 86 1.7 35 -89.6 -3.528
04:17 1022 30.18 851 25.13 3.8 38.9 86 1.7 35.1 -89.6 -3.528
04:18 1022 30.18 851 25.13 3.9 39 85 1.6 35 -89.6 -3.528
04:19 1022 30.18 851 25.13 3.9 39 85 1.6 34.9 -89.6 -3.528
04:20 1022 30.18 851 25.13 3.9 39 86 1.7 35 -89.6 -3.528
04:21 1022 30.18 851 25.13 3.9 39 85 1.7 35 -89.6 -3.528
04:22 1022 30.18 851 25.13 3.8 38.9 86 1.6 34.9 -89.6 -3.528
04:23 1022 30.18 851 25.13 3.8 38.8 86 1.6 34.8 -89.6 -3.528
04:24 1022 30.18 851 25.13 3.8 38.8 86 1.6 35 -89.6 -3.528
04:25 1022 30.18 851 25.13 3.7 38.7 86 1.6 35 -89.6 -3.528
04:26 1022 30.18 851 25.13 3.7 38.7 87 1.7 35 -89.6 -3.528
04:27 1022 30.18 851 25.13 3.7 38.6 87 1.7 35.1 -89.6 -3.528
04:28 1022 30.18 851 25.13 3.6 38.6 87 1.7 35.1 -89.6 -3.528
04:29 1022 30.18 851 25.13 3.6 38.4 87 1.6 34.9 -89.6 -3.528
04:30 1022 30.18 851 25.13 3.6 38.4 87 1.6 34.9 -89.6 -3.528
04:31 1022 30.18 851 25.13 3.5 38.4 87 1.6 34.9 -89.5 -3.524
04:32 1022 30.18 851 25.13 3.6 38.4 87 1.6 34.9 -89.5 -3.524
04:33 1022 30.18 851 25.13 3.6 38.4 87 1.6 34.9 -89.5 -3.524
04:34 1022 30.18 851 25.13 3.5 38.4 87 1.6 34.9 -89.5 -3.524
04:35 1022 30.18 851 25.13 3.5 38.3 87 1.6 34.8 -89.5 -3.524
04:36 1022 30.18 851 25.13 3.5 38.3 87 1.6 34.9 -89.5 -3.524
04:37 1022 30.18 851 25.13 3.5 38.4 88 1.7 35.1 -89.5 -3.524
04:38 1022 30.18 851 25.13 3.5 38.3 88 1.8 35.2 -89.5 -3.524
04:39 1022 30.18 851 25.13 3.5 38.3 88 1.7 35 -89.5 -3.524
04:40 1022 30.18 851 25.13 3.5 38.3 87 1.6 34.9 -89.5 -3.524
04:41 1022 30.18 851 25.13 3.5 38.4 87 1.6 34.8 -89.5 -3.524
04:42 1022 30.18 851 25.13 3.6 38.4 87 1.5 34.8 -89.5 -3.524
04:43 1022 30.18 851 25.13 3.6 38.4 86 1.4 34.5 -89.5 -3.524
04:44 1022 30.18 851 25.13 3.6 38.6 85 1.4 34.5 -89.6 -3.528
04:45 1022 30.18 851 25.13 3.7 38.6 85 1.4 34.5 -89.6 -3.528
04:46 1022 30.18 851 25.13 3.7 38.6 85 1.4 34.5 -89.6 -3.528
04:47 1022 30.18 851 25.13 3.7 38.6 85 1.4 34.6 -89.6 -3.528
04:48 1022 30.18 851 25.13 3.6 38.6 85 1.4 34.5 -89.6 -3.528
04:49 1022 30.18 851 25.13 3.7 38.6 85 1.4 34.6 -89.6 -3.528
04:50 1022 30.18 851 25.13 3.6 38.6 86 1.4 34.6 -89.6 -3.528
04:51 1022 30.18 851 25.13 3.6 38.5 86 1.6 34.8 -89.6 -3.528
04:52 1022 30.18 851 25.13 3.6 38.5 86 1.4 34.6 -89.6 -3.528
04:53 1021 30.15 851 25.13 3.7 38.6 85 1.3 34.4 -89.6 -3.528
04:54 1021 30.15 851 25.13 3.7 38.6 84 1.3 34.3 -89.6 -3.528
04:55 1021 30.15 851 25.13 3.7 38.7 84 1.3 34.3 -89.6 -3.528
04:56 1021 30.15 851 25.13 3.7 38.7 85 1.5 34.6 -89.6 -3.528
04:57 1021 30.15 851 25.13 3.7 38.6 85 1.4 34.5 -89.6 -3.528
04:58 1021 30.15 851 25.13 3.7 38.6 85 1.4 34.5 -89.6 -3.528
04:59 1021 30.15 851 25.13 3.7 38.7 85 1.4 34.5 -89.6 -3.528
05:00 1021 30.15 851 25.13 3.7 38.7 84 1.3 34.3 -89.6 -3.528
05:01 1021 30.15 851 25.13 3.7 38.7 84 1.3 34.3 -89.6 -3.528
05:02 1021 30.15 851 25.13 3.7 38.7 84 1.3 34.3 -89.6 -3.528
05:03 1021 30.15 851 25.13 3.7 38.6 85 1.3 34.4 -89.6 -3.528
05:04 1021 30.15 851 25.13 3.6 38.5 85 1.4 34.5 -89.6 -3.528
05:05 1021 30.15 850 25.1 3.6 38.4 86 1.4 34.5 -89.6 -3.528
05:06 1021 30.15 850 25.1 3.6 38.4 86 1.5 34.6 -89.6 -3.528
05:07 1021 30.15 850 25.1 3.5 38.4 86 1.4 34.6 -89.6 -3.528
05:08 1021 30.15 850 25.1 3.5 38.3 87 1.4 34.6 -89.6 -3.528
05:09 1021 30.15 850 25.1 3.4 38.2 87 1.5 34.7 -89.6 -3.528
05:10 1021 30.15 850 25.1 3.4 38.2 88 1.6 34.8 -89.6 -3.528
05:11 1021 30.15 850 25.1 3.4 38.1 88 1.6 34.8 -89.6 -3.528
05:12 1021 30.15 850 25.1 3.3 38 88 1.6 34.8 -89.6 -3.528
05:13 1021 30.15 850 25.1 3.4 38.1 88 1.5 34.8 -89.5 -3.524
05:14 1021 30.15 850 25.1 3.4 38 88 1.5 34.7 -89.6 -3.528
05:15 1021 30.15 850 25.1 3.4 38.1 88 1.5 34.7 -89.6 -3.528
05:16 1021 30.15 850 25.1 3.4 38.1 88 1.5 34.7 -89.6 -3.528
05:17 1021 30.15 850 25.1 3.4 38.1 88 1.5 34.7 -89.6 -3.528
05:18 1021 30.15 850 25.1 3.4 38.1 88 1.5 34.8 -89.6 -3.528
05:19 1021 30.15 850 25.1 3.4 38.1 88 1.5 34.8 -89.6 -3.528
05:20 1021 30.15 850 25.1 3.4 38.1 88 1.6 34.8 -89.6 -3.528
05:21 1021 30.15 850 25.1 3.4 38.1 88 1.6 34.8 -89.6 -3.528
05:22 1021 30.15 850 25.1 3.4 38.1 88 1.6 34.9 -89.6 -3.528
05:23 1021 30.15 850 25.1 3.4 38 88 1.6 34.8 -89.6 -3.528
05:24 1021 30.15 850 25.1 3.4 38.1 88 1.6 34.9 -89.6 -3.528
05:25 1021 30.15 850 25.1 3.4 38.1 88 1.6 34.9 -89.6 -3.528
05:26 1021 30.15 850 25.1 3.4 38.1 88 1.5 34.8 -89.6 -3.528
05:27 1021 30.15 850 25.1 3.4 38.1 88 1.6 34.9 -89.6 -3.528
05:28 1021 30.15 850 25.1 3.4 38.1 88 1.6 35 -89.6 -3.528
05:29 1021 30.15 850 25.1 3.4 38 88 1.6 34.9 -89.6 -3.528
05:30 1021 30.15 851 25.13 3.4 38.1 88 1.6 34.9 -89.6 -3.528
05:31 1021 30.15 850 25.1 3.4 38.1 88 1.7 35 -89.6 -3.528
05:32 1021 30.15 851 25.13 3.4 38.2 88 1.7 35 -89.6 -3.528
05:33 1021 30.15 850 25.1 3.4 38.1 88 1.7 35 -89.6 -3.528
05:34 1021 30.15 850 25.1 3.4 38.1 88 1.7 35 -89.6 -3.528
05:35 1021 30.15 850 25.1 3.4 38.1 89 1.7 35 -89.6 -3.528
05:36 1021 30.15 850 25.1 3.4 38.2 89 1.7 35.1 -89.6 -3.528
05:37 1021 30.15 850 25.1 3.4 38.1 89 1.7 35.1 -89.6 -3.528
05:38 1021 30.15 850 25.1 3.4 38.1 89 1.7 35 -89.6 -3.528
05:39 1021 30.15 850 25.1 3.4 38.1 89 1.7 35.1 -89.6 -3.528
05:40 1021 30.15 850 25.1 3.4 38.2 89 1.7 35.1 -89.6 -3.528
05:41 1021 30.15 850 25.1 3.4 38.2 88 1.7 35.1 -89.6 -3.528
05:42 1021 30.15 850 25.1 3.4 38.2 88 1.7 35 -89.6 -3.528
05:43 1021 30.15 850 25.1 3.4 38.2 88 1.7 35 -89.6 -3.528
05:44 1021 30.15 850 25.1 3.4 38.2 88 1.7 35 -89.6 -3.528
05:45 1021 30.15 850 25.1 3.4 38.2 88 1.7 35 -89.6 -3.528
05:46 1021 30.15 850 25.1 3.4 38.2 88 1.7 35 -89.6 -3.528
05:47 1021 30.15 850 25.1 3.4 38.2 88 1.6 35 -89.6 -3.528
05:48 1021 30.15 850 25.1 3.5 38.2 88 1.7 35 -89.6 -3.528
05:49 1021 30.15 850 25.1 3.5 38.2 88 1.6 34.9 -89.6 -3.528
05:50 1021 30.15 850 25.1 3.5 38.2 88 1.6 34.9 -89.6 -3.528
05:51 1021 30.15 850 25.1 3.5 38.3 88 1.6 35 -89.7 -3.531
05:52 1021 30.15 850 25.1 3.5 38.3 88 1.6 34.9 -89.7 -3.531
05:53 1021 30.15 851 25.13 3.5 38.3 88 1.6 34.9 -89.7 -3.531
05:54 1021 30.15 851 25.13 3.5 38.3 88 1.7 35 -89.7 -3.531
05:55 1021 30.15 851 25.13 3.5 38.3 88 1.7 35 -89.7 -3.531
05:56 1021 30.15 850 25.1 3.5 38.2 88 1.6 35 -89.7 -3.531
05:57 1021 30.15 850 25.1 3.5 38.3 88 1.7 35 -89.6 -3.528
05:58 1021 30.15 850 25.1 3.5 38.3 88 1.7 35 -89.6 -3.528
05:59 1021 30.15 850 25.1 3.5 38.3 88 1.6 34.9 -89.7 -3.531
06:00 1021 30.15 850 25.1 3.5 38.3 88 1.7 35.1 -89.6 -3.528
06:01 1021 30.15 850 25.1 3.5 38.3 88 1.7 35 -89.7 -3.531
06:02 1021 30.15 850 25.1 3.6 38.4 88 1.7 35 -89.7 -3.531
06:03 1021 30.15 850 25.1 3.5 38.4 88 1.7 35 -89.7 -3.531
06:04 1021 30.15 850 25.1 3.6 38.5 87 1.7 35 -89.7 -3.531
06:05 1021 30.15 851 25.13 3.6 38.5 87 1.7 35 -89.7 -3.531
06:06 1021 30.15 851 25.13 3.6 38.5 87 1.6 35 -89.7 -3.531
06:07 1021 30.15 851 25.13 3.6 38.5 87 1.7 35 -89.7 -3.531
06:08 1021 30.15 851 25.13 3.6 38.5 87 1.6 35 -89.7 -3.531
06:09 1021 30.15 851 25.13 3.7 38.6 87 1.7 35 -89.7 -3.531
06:10 1021 30.15 851 25.13 3.7 38.6 87 1.7 35 -89.7 -3.531
06:11 1022 30.18 851 25.13 3.7 38.6 87 1.7 35 -89.7 -3.531
06:12 1022 30.18 851 25.13 3.7 38.6 87 1.6 34.9 -89.7 -3.531
06:13 1022 30.18 851 25.13 3.7 38.6 86 1.6 34.9 -89.7 -3.531
06:14 1022 30.18 851 25.13 3.7 38.6 86 1.6 34.9 -89.7 -3.531
06:15 1021 30.15 851 25.13 3.7 38.6 87 1.7 35 -89.7 -3.531
06:16 1021 30.15 851 25.13 3.7 38.7 86 1.6 34.9 -89.7 -3.531
06:17 1021 30.15 851 25.13 3.7 38.7 86 1.6 34.9 -89.7 -3.531
06:18 1021 30.15 851 25.13 3.7 38.7 86 1.7 35 -89.7 -3.531
06:19 1021 30.15 851 25.13 3.7 38.6 87 1.7 35 -89.7 -3.531
06:20 1021 30.15 851 25.13 3.7 38.6 87 1.7 35.1 -89.7 -3.531
06:21 1021 30.15 851 25.13 3.7 38.6 87 1.7 35.1 -89.7 -3.531
06:22 1021 30.15 851 25.13 3.6 38.5 87 1.7 35.1 -89.7 -3.531
06:23 1021 30.15 851 25.13 3.6 38.5 87 1.7 35 -89.7 -3.531
06:24 1021 30.15 851 25.13 3.6 38.5 88 1.8 35.2 -89.7 -3.531
06:25 1021 30.15 851 25.13 3.6 38.4 88 1.7 35.1 -89.7 -3.531
06:26 1021 30.15 851 25.13 3.6 38.5 88 1.8 35.2 -89.7 -3.531
06:27 1021 30.15 851 25.13 3.6 38.4 88 1.8 35.2 -89.7 -3.531
06:28 1021 30.15 851 25.13 3.5 38.4 88 1.8 35.2 -89.7 -3.531
06:29 1021 30.15 851 25.13 3.6 38.4 88 1.8 35.2 -89.7 -3.531
06:30 1021 30.15 851 25.13 3.6 38.4 88 1.8 35.3 -89.7 -3.531
06:31 1021 30.15 851 25.13 3.5 38.3 89 1.8 35.3 -89.7 -3.531
06:32 1021 30.15 850 25.1 3.5 38.3 89 1.8 35.3 -89.7 -3.531
06:33 1021 30.15 850 25.1 3.5 38.3 88 1.8 35.2 -89.7 -3.531
06:34 1021 30.15 850 25.1 3.5 38.3 88 1.8 35.2 -89.7 -3.531
06:35 1021 30.15 850 25.1 3.5 38.3 88 1.7 35.1 -89.7 -3.531
06:36 1021 30.15 850 25.1 3.5 38.3 88 1.7 35.1 -89.7 -3.531
06:37 1021 30.15 850 25.1 3.5 38.4 88 1.8 35.2 -89.7 -3.531
06:38 1021 30.15 850 25.1 3.5 38.4 88 1.8 35.2 -89.7 -3.531
06:39 1021 30.15 850 25.1 3.5 38.3 88 1.8 35.2 -89.7 -3.531
06:40 1021 30.15 850 25.1 3.5 38.3 88 1.7 35 -89.7 -3.531
06:41 1021 30.15 850 25.1 3.5 38.4 87 1.6 34.9 -89.7 -3.531
06:42 1021 30.15 850 25.1 3.6 38.4 87 1.7 35 -89.7 -3.531
06:43 1021 30.15 851 25.13 3.6 38.5 87 1.7 35 -89.8 -3.535
06:44 1021 30.15 851 25.13 3.6 38.4 87 1.6 35 -89.8 -3.535
06:45 1021 30.15 851 25.13 3.6 38.5 87 1.6 34.9 -89.8 -3.535
06:46 1021 30.15 851 25.13 3.6 38.5 87 1.6 34.8 -89.8 -3.535
06:47 1021 30.15 851 25.13 3.6 38.5 86 1.5 34.7 -89.8 -3.535
06:48 1021 30.15 851 25.13 3.6 38.6 86 1.4 34.6 -89.8 -3.535
06:49 1021 30.15 851 25.13 3.7 38.7 85 1.5 34.7 -89.8 -3.535
06:50 1021 30.15 851 25.13 3.7 38.7 85 1.4 34.5 -89.8 -3.535
06:51 1021 30.15 851 25.13 3.7 38.7 84 1.3 34.4 -89.9 -3.539
06:52 1021 30.15 851 25.13 3.8 38.8 84 1.4 34.5 -89.9 -3.539
06:53 1021 30.15 851 25.13 3.8 38.9 84 1.4 34.5 -89.9 -3.539
06:54 1021 30.15 851 25.13 3.8 38.9 84 1.4 34.4 -89.9 -3.539
06:55 1022 30.18 851 25.13 3.8 38.9 84 1.4 34.5 -89.9 -3.539
06:56 1022 30.18 851 25.13 3.9 39 84 1.4 34.4 -89.9 -3.539
06:57 1022 30.18 851 25.13 3.9 38.9 84 1.3 34.4 -89.9 -3.539
06:58 1022 30.18 851 25.13 3.9 39 84 1.4 34.5 -89.9 -3.539
06:59 1022 30.18 851 25.13 3.9 39 84 1.4 34.5 -89.9 -3.539
07:00 1022 30.18 851 25.13 3.9 39 84 1.4 34.5 -89.9 -3.539
07:01 1022 30.18 851 25.13 3.9 39 83 1.3 34.3 -89.9 -3.539
07:02 1022 30.18 851 25.13 3.9 39 83 1.2 34.2 -89.9 -3.539
07:03 1022 30.18 851 25.13 3.9 39.1 83 1.3 34.3 -89.9 -3.539
07:04 1022 30.18 851 25.13 3.9 39.1 83 1.3 34.3 -89.9 -3.539
07:05 1022 30.18 851 25.13 3.9 39.1 83 1.3 34.4 -90 -3.543
07:06 1021 30.15 851 25.13 4 39.2 83 1.3 34.3 -90 -3.543
07:07 1021 30.15 851 25.13 3.9 39.1 83 1.3 34.4 -90 -3.543
07:08 1022 30.18 851 25.13 3.9 39.1 83 1.3 34.3 -90 -3.543
07:09 1022 30.18 851 25.13 3.9 39.1 83 1.3 34.4 -90 -3.543
07:10 1022 30.18 851 25.13 3.9 39.1 83 1.3 34.3 -90 -3.543
07:11 1022 30.18 851 25.13 3.9 39.1 83 1.3 34.3 -90 -3.543
07:12 1022 30.18 851 25.13 3.9 39.1 83 1.3 34.4 -90 -3.543
07:13 1022 30.18 851 25.13 3.9 39.1 83 1.4 34.5 -90 -3.543
07:14 1022 30.18 851 25.13 3.9 39.1 83 1.3 34.4 -90 -3.543
07:15 1022 30.18 851 25.13 3.9 39.1 83 1.3 34.4 -90 -3.543
07:16 1022 30.18 851 25.13 3.9 39.1 83 1.2 34.2 -90 -3.543
07:17 1022 30.18 851 25.13 3.9 39.1 83 1.3 34.3 -90 -3.543
07:18 1022 30.18 851 25.13 3.9 39.1 83 1.3 34.4 -90 -3.543
07:19 1022 30.18 851 25.13 3.9 39.1 83 1.3 34.4 -90 -3.543
07:20 1022 30.18 851 25.13 3.9 39 83 1.3 34.4 -89.9 -3.539
07:21 1021 30.15 851 25.13 3.9 39 84 1.3 34.4 -89.9 -3.539
07:22 1021 30.15 851 25.13 3.9 39 84 1.4 34.4 -89.9 -3.539
07:23 1021 30.15 851 25.13 3.9 39 84 1.5 34.6 -89.9 -3.539
07:24 1021 30.15 851 25.13 3.8 38.9 84 1.5 34.6 -89.9 -3.539
07:25 1021 30.15 851 25.13 3.8 38.9 84 1.4 34.5 -89.9 -3.539
07:26 1022 30.18 851 25.13 3.8 38.9 84 1.4 34.5 -89.9 -3.539
07:27 1022 30.18 851 25.13 3.8 38.9 85 1.5 34.6 -89.9 -3.539
07:28 1022 30.18 851 25.13 3.8 38.9 85 1.5 34.7 -89.9 -3.539
07:29 1022 30.18 851 25.13 3.8 38.9 85 1.5 34.8 -89.9 -3.539
07:30 1021 30.15 851 25.13 3.8 38.8 86 1.6 34.9 -89.9 -3.539
07:31 1021 30.15 851 25.13 3.7 38.7 86 1.6 35 -89.9 -3.539
07:32 1021 30.15 851 25.13 3.7 38.7 87 1.7 35 -89.9 -3.539
07:33 1021 30.15 851 25.13 3.7 38.6 86 1.5 34.8 -89.9 -3.539
07:34 1022 30.18 851 25.13 3.7 38.7 86 1.6 34.8 -89.9 -3.539
07:35 1022 30.18 851 25.13 3.7 38.7 85 1.5 34.7 -89.9 -3.539
07:36 1022 30.18 851 25.13 3.7 38.7 86 1.6 34.9 -89.9 -3.539
07:37 1022 30.18 851 25.13 3.7 38.7 86 1.6 34.8 -89.9 -3.539
07:38 1022 30.18 851 25.13 3.7 38.7 86 1.5 34.7 -89.9 -3.539
07:39 1022 30.18 851 25.13 3.7 38.7 85 1.4 34.6 -89.9 -3.539
07:40 1022 30.18 851 25.13 3.8 38.8 85 1.5 34.7 -89.9 -3.539
07:41 1022 30.18 851 25.13 3.7 38.7 86 1.6 34.8 -89.9 -3.539
07:42 1022 30.18 851 25.13 3.7 38.7 85 1.5 34.7 -89.9 -3.539
07:43 1022 30.18 851 25.13 3.7 38.7 85 1.4 34.6 -89.9 -3.539
07:44 1022 30.18 851 25.13 3.8 38.8 85 1.5 34.7 -89.9 -3.539
07:45 1022 30.18 851 25.13 3.7 38.7 85 1.5 34.7 -89.9 -3.539
07:46 1022 30.18 851 25.13 3.7 38.7 85 1.4 34.6 -89.9 -3.539
07:47 1022 30.18 851 25.13 3.7 38.7 85 1.4 34.6 -89.9 -3.539
07:48 1022 30.18 851 25.13 3.7 38.7 85 1.4 34.5 -89.9 -3.539
07:49 1022 30.18 851 25.13 3.7 38.7 84 1.4 34.4 -89.9 -3.539
07:50 1021 30.15 851 25.13 3.8 38.8 85 1.4 34.5 -90 -3.543
07:51 1022 30.18 851 25.13 3.7 38.7 85 1.4 34.5 -90 -3.543
07:52 1022 30.18 851 25.13 3.8 38.8 84 1.4 34.4 -90 -3.543
07:53 1022 30.18 851 25.13 3.8 38.8 84 1.3 34.4 -90 -3.543
07:54 1022 30.18 851 25.13 3.8 38.8 84 1.4 34.4 -90 -3.543
07:55 1021 30.15 851 25.13 3.8 38.8 84 1.3 34.4 -90 -3.543
07:56 1021 30.15 851 25.13 3.8 38.9 84 1.4 34.4 -90 -3.543
07:57 1022 30.18 851 25.13 3.8 38.8 85 1.4 34.6 -90 -3.543
07:58 1022 30.18 851 25.13 3.8 38.9 84 1.4 34.5 -90 -3.543
07:59 1022 30.18 851 25.13 3.8 38.8 84 1.4 34.5 -90 -3.543
08:00 1022 30.18 851 25.13 3.8 38.9 84 1.4 34.5 -90 -3.543
08:01 1022 30.18 851 25.13 3.8 38.9 84 1.4 34.5 -90 -3.543
08:02 1022 30.18 851 25.13 3.8 38.9 85 1.5 34.6 -90 -3.543
08:03 1022 30.18 851 25.13 3.8 38.9 84 1.4 34.4 -90 -3.543
08:04 1022 30.18 851 25.13 3.8 38.9 84 1.4 34.6 -90 -3.543
08:05 1022 30.18 851 25.13 3.8 38.9 84 1.3 34.4 -90 -3.543
08:06 1022 30.18 851 25.13 3.8 38.9 83 1.3 34.3 -90 -3.543
08:07 1022 30.18 851 25.13 3.8 38.9 84 1.4 34.5 -90 -3.543
08:08 1022 30.18 851 25.13 3.9 38.9 83 1.2 34.2 -90 -3.543
08:09 1022 30.18 851 25.13 3.9 39 83 1.2 34.2 -90 -3.543
08:10 1022 30.18 851 25.13 3.9 39 83 1.3 34.4 -90.1 -3.547
08:11 1022 30.18 851 25.13 3.9 39 83 1.3 34.3 -90.1 -3.547
08:12 1022 30.18 851 25.13 3.9 39 84 1.4 34.6 -90.1 -3.547
08:13 1022 30.18 851 25.13 3.9 39 84 1.5 34.7 -90.1 -3.547
08:14 1022 30.18 851 25.13 3.8 38.9 85 1.5 34.7 -90 -3.543
08:15 1022 30.18 851 25.13 3.8 38.9 84 1.3 34.4 -90 -3.543
08:16 1022 30.18 851 25.13 3.9 38.9 84 1.3 34.4 -90 -3.543
08:17 1022 30.18 851 25.13 3.9 39 83 1.3 34.3 -90.1 -3.547
08:18 1022 30.18 851 25.13 3.9 39 84 1.4 34.6 -90.1 -3.547
08:19 1022 30.18 851 25.13 3.9 38.9 84 1.4 34.5 -90.1 -3.547
08:20 1022 30.18 851 25.13 3.8 38.9 84 1.4 34.5 -90.1 -3.547
08:21 1022 30.18 851 25.13 3.8 38.9 84 1.5 34.6 -90.1 -3.547
08:22 1022 30.18 851 25.13 3.8 38.9 85 1.5 34.7 -90.1 -3.547
08:23 1022 30.18 851 25.13 3.8 38.9 85 1.5 34.8 -90.1 -3.547
08:24 1022 30.18 851 25.13 3.8 38.9 85 1.6 34.9 -90.1 -3.547
08:25 1022 30.18 851 25.13 3.8 38.9 86 1.6 34.9 -90 -3.543
08:26 1022 30.18 851 25.13 3.8 38.9 86 1.6 35 -90.1 -3.547
08:27 1022 30.18 851 25.13 3.9 38.9 86 1.7 35 -90 -3.543
08:28 1022 30.18 851 25.13 3.8 38.9 86 1.7 35 -90 -3.543
08:29 1022 30.18 851 25.13 3.8 38.9 86 1.7 35.1 -90 -3.543
08:30 1022 30.18 851 25.13 3.8 38.9 86 1.7 35.1 -90 -3.543
08:31 1022 30.18 851 25.13 3.8 38.9 86 1.7 35 -90 -3.543
08:32 1021 30.15 851 25.13 3.9 38.9 85 1.6 35 -90 -3.543
08:33 1021 30.15 851 25.13 3.9 38.9 86 1.7 35 -90 -3.543
08:34 1022 30.18 851 25.13 3.9 38.9 86 1.7 35 -90 -3.543
08:35 1022 30.18 851 25.13 3.9 38.9 86 1.7 35.1 -90 -3.543
08:36 1022 30.18 851 25.13 3.9 39 86 1.8 35.2 -90 -3.543
08:37 1021 30.15 851 25.13 3.9 39 86 1.8 35.2 -90 -3.543
08:38 1021 30.15 851 25.13 3.9 39 87 1.9 35.3 -90 -3.543
08:39 1022 30.18 851 25.13 3.9 39 86 1.7 35.1 -90 -3.543
08:40 1022 30.18 851 25.13 3.9 39 86 1.7 35.1 -90 -3.543
08:41 1022 30.18 851 25.13 3.9 39 86 1.8 35.2 -90 -3.543
08:42 1022 30.18 851 25.13 3.9 39 86 1.7 35 -90 -3.543
08:43 1022 30.18 851 25.13 3.9 39 85 1.7 35 -90 -3.543
08:44 1022 30.18 851 25.13 3.9 39 85 1.6 34.9 -90 -3.543
08:45 1022 30.18 851 25.13 3.9 39 85 1.6 34.8 -90 -3.543
08:46 1022 30.18 851 25.13 3.9 38.9 85 1.6 34.9 -90 -3.543
08:47 1022 30.18 851 25.13 3.9 39 85 1.6 35 -90 -3.543
08:48 1022 30.18 851 25.13 3.9 39 85 1.6 34.8 -90 -3.543
08:49 1022 30.18 851 25.13 3.9 39 85 1.7 35 -90 -3.543
08:50 1022 30.18 851 25.13 3.9 39 86 1.7 35.1 -90 -3.543
08:51 1022 30.18 851 25.13 3.9 39 86 1.7 35.1 -90 -3.543
08:52 1022 30.18 851 25.13 3.9 39 86 1.7 35.1 -90 -3.543
08:53 1022 30.18 851 25.13 3.9 39 86 1.8 35.2 -90 -3.543
08:54 1022 30.18 851 25.13 3.9 39 86 1.8 35.3 -90 -3.543
08:55 1022 30.18 851 25.13 3.9 39.1 87 1.9 35.4 -89.9 -3.539
08:56 1022 30.18 851 25.13 3.9 39.1 86 1.8 35.3 -89.9 -3.539
08:57 1022 30.18 851 25.13 3.9 39.1 87 1.9 35.5 -89.9 -3.539
08:58 1022 30.18 851 25.13 3.9 39.1 86 1.9 35.3 -89.9 -3.539
08:59 1022 30.18 851 25.13 4 39.1 86 1.9 35.4 -89.9 -3.539
09:00 1022 30.18 851 25.13 4 39.1 86 1.8 35.2 -89.9 -3.539
09:01 1022 30.18 851 25.13 4 39.1 85 1.7 35.1 -89.9 -3.539
09:02 1022 30.18 851 25.13 4 39.2 85 1.8 35.2 -90 -3.543
09:03 1022 30.18 851 25.13 4 39.2 86 1.8 35.3 -90 -3.543
09:04 1022 30.18 851 25.13 4 39.2 84 1.6 34.9 -90 -3.543
09:05 1022 30.18 851 25.13 4 39.3 85 1.8 35.2 -90 -3.543
09:06 1022 30.18 851 25.13 4 39.3 85 1.8 35.2 -90 -3.543
09:07 1022 30.18 851 25.13 4.1 39.3 84 1.7 35 -90 -3.543
09:08 1022 30.18 851 25.13 4.1 39.3 85 1.8 35.3 -90 -3.543
09:09 1022 30.18 851 25.13 4.1 39.3 85 1.8 35.3 -89.9 -3.539
09:10 1022 30.18 851 25.13 4.1 39.3 85 1.7 35.1 -89.9 -3.539
09:11 1022 30.18 851 25.13 4.1 39.3 84 1.6 34.8 -89.9 -3.539
09:12 1022 30.18 851 25.13 4 39.3 85 1.7 35.1 -89.9 -3.539
09:13 1022 30.18 851 25.13 4.1 39.3 84 1.6 34.8 -89.9 -3.539
09:14 1022 30.18 851 25.13 4.1 39.3 84 1.7 35 -89.9 -3.539
09:15 1022 30.18 851 25.13 4.1 39.3 84 1.6 34.9 -89.9 -3.539
09:16 1022 30.18 851 25.13 4.1 39.3 84 1.6 35 -89.9 -3.539
09:17 1022 30.18 851 25.13 4.1 39.3 84 1.7 35 -89.9 -3.539
09:18 1021 30.15 851 25.13 4.1 39.3 85 1.7 35.1 -89.9 -3.539
09:19 1021 30.15 851 25.13 4.1 39.4 83 1.5 34.8 -89.9 -3.539
09:20 1021 30.15 851 25.13 4.1 39.4 83 1.5 34.8 -89.9 -3.539
09:21 1021 30.15 851 25.13 4.1 39.5 83 1.5 34.6 -89.9 -3.539
09:22 1021 30.15 851 25.13 4.1 39.4 84 1.6 34.8 -89.9 -3.539
09:23 1021 30.15 851 25.13 4.1 39.4 85 1.7 35.1 -89.9 -3.539
09:24 1021 30.15 851 25.13 4.2 39.5 85 1.9 35.4 -89.9 -3.539
09:25 1021 30.15 851 25.13 4.2 39.5 85 1.8 35.2 -89.9 -3.539
09:26 1021 30.15 851 25.13 4.2 39.5 85 2 35.5 -89.9 -3.539
09:27 1021 30.15 851 25.13 4.2 39.6 84 1.7 35 -89.9 -3.539
09:28 1021 30.15 851 25.13 4.2 39.6 84 1.7 35.1 -89.9 -3.539
09:29 1021 30.15 851 25.13 4.2 39.6 84 1.8 35.2 -89.9 -3.539
09:30 1021 30.15 851 25.13 4.2 39.6 84 1.7 35.1 -89.9 -3.539
09:31 1021 30.15 851 25.13 4.2 39.5 84 1.7 35.1 -89.9 -3.539
09:32 1021 30.15 851 25.13 4.2 39.6 84 1.8 35.2 -89.9 -3.539
09:33 1021 30.15 851 25.13 4.2 39.6 84 1.8 35.2 -89.9 -3.539
09:34 1021 30.15 851 25.13 4.3 39.7 84 1.8 35.2 -89.9 -3.539
09:35 1021 30.15 851 25.13 4.2 39.6 82 1.4 34.6 -89.9 -3.539
09:36 1021 30.15 851 25.13 4.2 39.5 83 1.5 34.7 -90 -3.543
09:37 1021 30.15 851 25.13 4.2 39.6 84 1.7 35.1 -90 -3.543
09:38 1021 30.15 851 25.13 4.2 39.6 85 1.9 35.5 -90 -3.543
09:39 1021 30.15 851 25.13 4.2 39.6 83 1.6 34.8 -90 -3.543
09:40 1021 30.15 851 25.13 4.3 39.7 83 1.6 34.9 -90 -3.543
09:41 1021 30.15 851 25.13 4.3 39.7 84 1.8 35.3 -90 -3.543
09:42 1021 30.15 851 25.13 4.3 39.7 82 1.6 34.8 -90 -3.543
09:43 1021 30.15 851 25.13 4.3 39.7 83 1.7 35.1 -90 -3.543
09:44 1021 30.15 851 25.13 4.4 39.8 84 1.9 35.5 -90 -3.543
09:45 1021 30.15 851 25.13 4.4 40 83 1.8 35.2 -90 -3.543
09:46 1021 30.15 851 25.13 4.5 40 83 1.8 35.2 -90 -3.543
09:47 1021 30.15 851 25.13 4.4 40 83 1.9 35.4 -90 -3.543
09:48 1021 30.15 851 25.13 4.5 40.1 82 1.7 35 -90.1 -3.547
09:49 1021 30.15 851 25.13 4.5 40 81 1.5 34.8 -90.1 -3.547
09:50 1021 30.15 851 25.13 4.5 40 82 1.6 34.9 -90.1 -3.547
09:51 1021 30.15 851 25.13 4.5 40 82 1.6 34.9 -90.1 -3.547
09:52 1021 30.15 851 25.13 4.5 40.1 81 1.5 34.7 -90.1 -3.547
09:53 1021 30.15 851 25.13 4.5 40.2 80 1.5 34.6 -90.1 -3.547
09:54 1021 30.15 851 25.13 4.5 40.2 81 1.5 34.7 -90.1 -3.547
09:55 1021 30.15 851 25.13 4.6 40.3 81 1.6 34.9 -90.1 -3.547
09:56 1021 30.15 851 25.13 4.6 40.3 81 1.7 35 -90.1 -3.547
09:57 1021 30.15 851 25.13 4.6 40.3 82 1.8 35.3 -90.1 -3.547
09:58 1021 30.15 851 25.13 4.7 40.4 81 1.6 35 -90.1 -3.547
09:59 1021 30.15 851 25.13 4.7 40.5 80 1.5 34.7 -90.2 -3.551
10:00 1021 30.15 851 25.13 4.7 40.4 81 1.8 35.2 -90.2 -3.551
10:01 1021 30.15 851 25.13 4.7 40.4 81 1.6 34.9 -90.2 -3.551
10:02 1021 30.15 851 25.13 4.7 40.5 81 1.7 35 -90.2 -3.551
10:03 1021 30.15 851 25.13 4.7 40.5 80 1.5 34.7 -90.2 -3.551
10:04 1021 30.15 851 25.13 4.7 40.5 80 1.6 34.9 -90.2 -3.551
10:05 1021 30.15 851 25.13 4.8 40.6 82 1.9 35.4 -90.2 -3.551
10:06 1021 30.15 851 25.13 4.8 40.7 81 1.8 35.2 -90.2 -3.551
10:07 1021 30.15 850 25.1 4.9 40.8 79 1.5 34.7 -90.2 -3.551
10:08 1021 30.15 850 25.1 4.9 40.9 79 1.6 34.9 -90.2 -3.551
10:09 1021 30.15 850 25.1 4.9 40.9 80 1.8 35.2 -90.2 -3.551
10:10 1021 30.15 850 25.1 4.9 40.9 80 1.8 35.2 -90.3 -3.555
10:11 1021 30.15 850 25.1 4.9 40.9 79 1.6 34.9 -90.3 -3.555
10:12 1021 30.15 850 25.1 5 41 80 1.9 35.4 -90.3 -3.555
10:13 1021 30.15 850 25.1 5.1 41.1 79 1.7 35.1 -90.3 -3.555
10:14 1021 30.15 850 25.1 5.1 41.1 80 1.9 35.4 -90.3 -3.555
10:15 1021 30.15 850 25.1 5.1 41.3 78 1.6 34.8 -90.3 -3.555
10:16 1021 30.15 850 25.1 5.1 41.2 78 1.7 35 -90.3 -3.555
10:17 1021 30.15 850 25.1 5.1 41.3 80 2 35.6 -90.3 -3.555
10:18 1021 30.15 851 25.13 5.2 41.4 81 2.2 36 -90.3 -3.555
10:19 1021 30.15 851 25.13 5.3 41.6 78 1.8 35.2 -90.3 -3.555
10:20 1021 30.15 851 25.13 5.3 41.6 80 2.1 35.7 -90.3 -3.555
10:21 1021 30.15 851 25.13 5.3 41.6 79 1.9 35.5 -90.3 -3.555
10:22 1021 30.15 851 25.13 5.4 41.7 79 2.1 35.8 -90.3 -3.555
10:23 1021 30.15 851 25.13 5.4 41.8 76 1.6 34.9 -90.3 -3.555
10:24 1021 30.15 851 25.13 5.3 41.6 77 1.6 34.9 -90.3 -3.555
10:25 1021 30.15 851 25.13 5.3 41.6 79 2.1 35.7 -90.3 -3.555
10:26 1021 30.15 851 25.13 5.4 41.7 78 1.9 35.4 -90.3 -3.555
10:27 1021 30.15 850 25.1 5.4 41.8 76 1.6 34.9 -90.3 -3.555
10:28 1021 30.15 850 25.1 5.4 41.7 77 1.7 35.1 -90.3 -3.555
10:29 1021 30.15 850 25.1 5.4 41.7 80 2.3 36.2 -90.3 -3.555
10:30 1021 30.15 850 25.1 5.4 41.7 77 1.7 35.1 -90.3 -3.555
10:31 1021 30.15 850 25.1 5.4 41.8 78 1.8 35.3 -90.3 -3.555
10:32 1021 30.15 851 25.13 5.5 41.9 80 2.3 36.1 -90.3 -3.555
10:33 1021 30.15 851 25.13 5.6 42 77 1.9 35.4 -90.3 -3.555
10:34 1021 30.15 851 25.13 5.6 42.1 77 1.9 35.5 -90.3 -3.555
10:35 1021 30.15 851 25.13 5.7 42.2 76 1.8 35.2 -90.3 -3.555
10:36 1021 30.15 851 25.13 5.7 42.2 75 1.6 34.9 -90.3 -3.555
10:37 1021 30.15 851 25.13 5.7 42.2 77 1.9 35.4 -90.3 -3.555
10:38 1021 30.15 851 25.13 5.7 42.3 75 1.7 35.1 -90.3 -3.555
10:39 1021 30.15 851 25.13 5.8 42.5 75 1.7 35.1 -90.3 -3.555
10:40 1021 30.15 851 25.13 5.8 42.5 76 1.9 35.4 -90.3 -3.555
10:41 1021 30.15 850 25.1 5.8 42.5 76 2 35.5 -90.3 -3.555
10:42 1021 30.15 850 25.1 5.8 42.5 75 1.7 35.1 -90.3 -3.555
10:43 1021 30.15 850 25.1 5.8 42.5 74 1.5 34.8 -90.3 -3.555
10:44 1021 30.15 850 25.1 5.8 42.4 75 1.8 35.2 -90.3 -3.555
10:45 1021 30.15 850 25.1 5.8 42.5 76 2 35.5 -90.3 -3.555
10:46 1021 30.15 850 25.1 5.9 42.6 77 2.1 35.8 -90.3 -3.555
10:47 1021 30.15 850 25.1 5.9 42.7 75 1.8 35.3 -90.4 -3.559
10:48 1021 30.15 850 25.1 5.9 42.6 76 1.9 35.5 -90.4 -3.559
10:49 1021 30.15 850 25.1 5.9 42.7 76 2 35.6 -90.4 -3.559
10:50 1021 30.15 851 25.13 6 42.8 74 1.7 35 -90.4 -3.559
10:51 1021 30.15 851 25.13 6 42.8 73 1.6 34.9 -90.4 -3.559
10:52 1021 30.15 851 25.13 6 42.8 74 1.7 35 -90.4 -3.559
10:53 1021 30.15 851 25.13 6 42.8 73 1.6 34.9 -90.4 -3.559
10:54 1021 30.15 851 25.13 6.1 43 75 1.9 35.5 -90.4 -3.559
10:55 1021 30.15 851 25.13 6.2 43.1 74 1.9 35.3 -90.4 -3.559
10:56 1021 30.15 851 25.13 6.2 43.2 74 1.9 35.4 -90.4 -3.559
10:57 1021 30.15 851 25.13 6.2 43.2 75 2.1 35.7 -90.4 -3.559
10:58 1021 30.15 851 25.13 6.2 43.2 71 1.4 34.5 -90.4 -3.559
10:59 1021 30.15 850 25.1 6.2 43.2 73 1.8 35.2 -90.4 -3.559
11:00 1021 30.15 851 25.13 6.2 43.2 72 1.5 34.7 -90.4 -3.559
11:01 1021 30.15 851 25.13 6.2 43.2 73 1.8 35.2 -90.4 -3.559
11:02 1021 30.15 851 25.13 6.3 43.3 74 2 35.7 -90.4 -3.559
11:03 1021 30.15 851 25.13 6.3 43.4 72 1.6 34.8 -90.5 -3.563
11:04 1021 30.15 851 25.13 6.3 43.4 72 1.7 35 -90.5 -3.563
11:05 1021 30.15 850 25.1 6.4 43.5 72 1.8 35.3 -90.5 -3.563
11:06 1021 30.15 850 25.1 6.4 43.5 74 2.2 36 -90.4 -3.559
11:07 1021 30.15 850 25.1 6.4 43.6 75 2.3 36.2 -90.4 -3.559
11:08 1021 30.15 850 25.1 6.4 43.5 76 2.5 36.6 -90.4 -3.559
11:09 1021 30.15 850 25.1 6.5 43.7 79 3.2 37.7 -90.4 -3.559
11:10 1021 30.15 850 25.1 6.5 43.7 79 3.2 37.7 -90.3 -3.555
11:11 1021 30.15 850 25.1 6.5 43.7 75 2.4 36.3 -90.2 -3.551
11:12 1021 30.15 850 25.1 6.4 43.6 76 2.6 36.6 -90.2 -3.551
11:13 1021 30.15 850 25.1 6.4 43.6 80 3.2 37.8 -90.2 -3.551
11:14 1021 30.15 850 25.1 6.5 43.7 80 3.2 37.8 -90.1 -3.547
11:15 1021 30.15 850 25.1 6.7 44 79 3.3 37.9 -90.1 -3.547
11:16 1021 30.15 850 25.1 6.9 44.4 75 2.8 37 -90.1 -3.547
11:17 1021 30.15 850 25.1 7.1 44.8 76 3.1 37.6 -90 -3.543
11:18 1021 30.15 850 25.1 7.3 45.1 76 3.4 38.1 -90.1 -3.547
11:19 1021 30.15 850 25.1 7.2 45 75 3.1 37.7 -90.1 -3.547
11:20 1021 30.15 850 25.1 7.2 44.9 74 2.9 37.3 -90.1 -3.547
11:21 1021 30.15 850 25.1 7.1 44.8 74 2.8 37 -90.1 -3.547
11:22 1021 30.15 850 25.1 7.2 45 69 1.9 35.4 -90.1 -3.547
11:23 1021 30.15 850 25.1 7.2 44.9 69 1.9 35.5 -90.1 -3.547
11:24 1021 30.15 850 25.1 7.2 44.9 67 1.4 34.6 -90.2 -3.551
11:25 1021 30.15 850 25.1 7.1 44.7 70 2.1 35.7 -90.2 -3.551
11:26 1021 30.15 850 25.1 7.2 44.9 68 1.7 35 -90.2 -3.551
11:27 1021 30.15 850 25.1 7.1 44.9 71 2.3 36.2 -90.2 -3.551
11:28 1021 30.15 850 25.1 7.2 44.9 71 2.2 35.9 -90.2 -3.551
11:29 1021 30.15 850 25.1 7.1 44.8 69 1.9 35.5 -90.2 -3.551
11:30 1021 30.15 850 25.1 7.1 44.8 75 2.9 37.3 -90.2 -3.551
11:31 1021 30.15 850 25.1 7.3 45.1 72 2.6 36.7 -90.2 -3.551
11:32 1021 30.15 850 25.1 7.3 45.1 69 2 35.6 -90.2 -3.551
11:33 1021 30.15 850 25.1 7.1 44.9 69 1.8 35.2 -90.2 -3.551
11:34 1021 30.15 850 25.1 7.1 44.8 69 1.8 35.3 -90.2 -3.551
11:35 1021 30.15 850 25.1 7.2 45 69 1.9 35.4 -90.2 -3.551
11:36 1021 30.15 850 25.1 7.4 45.4 71 2.5 36.5 -90.2 -3.551
11:37 1021 30.15 850 25.1 7.6 45.8 69 2.3 36.2 -90.2 -3.551
11:38 1021 30.15 850 25.1 7.7 45.8 67 1.9 35.5 -90.2 -3.551
11:39 1021 30.15 850 25.1 7.6 45.8 70 2.6 36.6 -90.2 -3.551
11:40 1021 30.15 850 25.1 7.8 46.1 67 2.1 35.7 -90.2 -3.551
11:41 1021 30.15 850 25.1 8 46.4 65 1.8 35.3 -90.2 -3.551
11:42 1021 30.15 850 25.1 8 46.4 64 1.7 35.1 -90.2 -3.551
11:43 1021 30.15 850 25.1 8 46.4 67 2.2 35.9 -90.2 -3.551
11:44 1021 30.15 850 25.1 8.1 46.5 68 2.5 36.4 -90.1 -3.547
11:45 1021 30.15 850 25.1 8.3 46.9 66 2.3 36.1 -90.1 -3.547
11:46 1021 30.15 850 25.1 8.5 47.2 66 2.5 36.5 -90.1 -3.547
11:47 1021 30.15 850 25.1 8.7 47.7 62 1.9 35.3 -90.1 -3.547
11:48 1021 30.15 850 25.1 8.7 47.6 65 2.5 36.5 -90.1 -3.547
11:49 1021 30.15 850 25.1 8.7 47.6 65 2.5 36.5 -90.1 -3.547
11:50 1021 30.15 850 25.1 8.6 47.5 63 1.9 35.4 -90.1 -3.547
11:51 1021 30.15 850 25.1 8.4 47.2 63 1.8 35.2 -90.1 -3.547
11:52 1021 30.15 850 25.1 8.3 46.9 65 2 35.7 -90.1 -3.547
11:53 1021 30.15 850 25.1 8.3 46.9 66 2.4 36.4 -90 -3.543
11:54 1021 30.15 850 25.1 8.3 47 69 2.9 37.3 -90 -3.543
11:55 1021 30.15 850 25.1 8.3 47 64 1.9 35.4 -90 -3.543
11:56 1021 30.15 850 25.1 8.3 46.9 67 2.6 36.8 -90 -3.543
11:57 1021 30.15 850 25.1 8.2 46.8 71 3.3 38 -90 -3.543
11:58 1021 30.15 850 25.1 8.1 46.6 70 3.1 37.5 -90 -3.543
11:59 1021 30.15 850 25.1 8 46.4 70 3 37.3 -90 -3.543
12:00 1021 30.15 850 25.1 7.9 46.3 70 2.8 37 -90 -3.543
12:01 1021 30.15 850 25.1 7.8 46.1 71 3 37.3 -90 -3.543
12:02 1021 30.15 850 25.1 7.8 46 73 3.2 37.7 -90 -3.543
12:03 1021 30.15 850 25.1 7.8 46.1 70 2.7 36.8 -90 -3.543
12:04 1021 30.15 850 25.1 7.7 45.9 70 2.7 36.8 -90 -3.543
12:05 1021 30.15 850 25.1 7.7 45.8 73 3.2 37.7 -90 -3.543
12:06 1021 30.15 850 25.1 7.6 45.7 73 3 37.4 -90 -3.543
12:07 1021 30.15 850 25.1 7.5 45.5 72 2.9 37.2 -90 -3.543
12:08 1021 30.15 850 25.1 7.4 45.4 75 3.3 38 -90 -3.543
12:09 1021 30.15 850 25.1 7.4 45.4 74 3.1 37.5 -90 -3.543
12:10 1021 30.15 850 25.1 7.3 45.1 74 2.9 37.3 -90 -3.543
12:11 1021 30.15 850 25.1 7.2 44.9 74 2.9 37.2 -90 -3.543
12:12 1021 30.15 850 25.1 7.2 44.9 76 3.1 37.7 -89.9 -3.539
12:13 1021 30.15 850 25.1 7.2 44.9 75 3 37.4 -89.9 -3.539
12:14 1021 30.15 850 25.1 7.1 44.8 76 3.1 37.7 -89.9 -3.539
12:15 1021 30.15 850 25.1 7.1 44.8 77 3.3 38 -89.8 -3.535
12:16 1021 30.15 850 25.1 7.1 44.9 75 3.1 37.5 -89.8 -3.535
12:17 1021 30.15 850 25.1 7.2 44.9 76 3.3 37.9 -89.8 -3.535
12:18 1021 30.15 850 25.1 7.2 45 74 2.9 37.2 -89.8 -3.535
12:19 1021 30.15 850 25.1 7.2 44.9 74 2.9 37.2 -89.8 -3.535
12:20 1021 30.15 850 25.1 7.2 44.9 75 3 37.4 -89.8 -3.535
12:21 1021 30.15 850 25.1 7.2 44.9 75 3.1 37.5 -89.8 -3.535
12:22 1021 30.15 850 25.1 7.2 44.9 74 3 37.3 -89.7 -3.531
12:23 1021 30.15 850 25.1 7.1 44.8 74 2.9 37.2 -89.8 -3.535
12:24 1021 30.15 850 25.1 7.1 44.7 76 3.1 37.6 -89.7 -3.531
12:25 1021 30.15 850 25.1 7 44.7 77 3.3 38 -89.7 -3.531
12:26 1021 30.15 850 25.1 7.1 44.7 74 2.9 37.1 -89.7 -3.531
12:27 1021 30.15 850 25.1 7.1 44.7 76 3.1 37.5 -89.7 -3.531
12:28 1021 30.15 850 25.1 7 44.6 76 3 37.5 -89.7 -3.531
12:29 1021 30.15 850 25.1 7 44.7 74 2.8 37 -89.7 -3.531
12:30 1021 30.15 850 25.1 7.1 44.7 78 3.4 38.2 -89.7 -3.531
12:31 1021 30.15 850 25.1 7.2 45 77 3.6 38.4 -89.7 -3.531
12:32 1021 30.15 850 25.1 7.4 45.3 72 2.7 36.9 -89.7 -3.531
12:33 1021 30.15 850 25.1 7.3 45.2 72 2.7 36.8 -89.7 -3.531
12:34 1021 30.15 850 25.1 7.2 45 74 3 37.4 -89.7 -3.531
12:35 1021 30.15 850 25.1 7.3 45.1 74 2.9 37.2 -89.7 -3.531
12:36 1021 30.15 850 25.1 7.3 45.1 73 2.8 37.1 -89.8 -3.535
12:37 1021 30.15 850 25.1 7.2 45 74 2.9 37.2 -89.8 -3.535
12:38 1021 30.15 850 25.1 7.2 44.9 72 2.5 36.5 -89.8 -3.535
12:39 1021 30.15 850 25.1 7.1 44.8 75 3 37.4 -89.8 -3.535
12:40 1021 30.15 850 25.1 7.2 45 73 2.8 37 -89.8 -3.535
12:41 1021 30.15 850 25.1 7.3 45.1 73 2.7 36.9 -89.8 -3.535
12:42 1021 30.15 850 25.1 7.3 45.1 73 2.8 37 -89.8 -3.535
12:43 1021 30.15 850 25.1 7.3 45.1 72 2.6 36.6 -89.8 -3.535
12:44 1021 30.15 850 25.1 7.3 45.2 75 3.1 37.6 -89.8 -3.535
12:45 1021 30.15 850 25.1 7.5 45.4 73 2.9 37.3 -89.8 -3.535
12:46 1021 30.15 850 25.1 7.6 45.7 71 2.7 36.8 -89.8 -3.535
12:47 1021 30.15 850 25.1 7.6 45.7 76 3.7 38.6 -89.8 -3.535
12:48 1021 30.15 850 25.1 7.8 46.1 70 2.7 36.9 -89.8 -3.535
12:49 1021 30.15 850 25.1 7.8 46.1 73 3.3 37.9 -89.7 -3.531
12:50 1021 30.15 850 25.1 7.8 46.1 72 3.1 37.6 -89.7 -3.531
12:51 1021 30.15 850 25.1 7.9 46.1 72 3.1 37.6 -89.7 -3.531
12:52 1021 30.15 850 25.1 7.9 46.2 72 3.1 37.6 -89.7 -3.531
12:53 1021 30.15 850 25.1 8 46.4 69 2.7 36.9 -89.7 -3.531
12:54 1021 30.15 850 25.1 8.1 46.5 69 2.6 36.8 -89.7 -3.531
12:55 1021 30.15 850 25.1 8 46.4 70 3 37.3 -89.7 -3.531
12:56 1021 30.15 850 25.1 8 46.5 70 2.9 37.3 -89.7 -3.531
12:57 1021 30.15 850 25.1 8.1 46.5 72 3.3 37.9 -89.7 -3.531
12:58 1021 30.15 850 25.1 8.1 46.6 71 3.3 37.9 -89.7 -3.531
12:59 1021 30.15 850 25.1 8.2 46.8 68 2.8 37 -89.7 -3.531
13:00 1021 30.15 850 25.1 8.2 46.7 71 3.2 37.8 -89.7 -3.531
13:01 1020 30.12 850 25.1 8.2 46.7 71 3.3 38 -89.7 -3.531
13:02 1020 30.12 850 25.1 8.2 46.7 71 3.3 38 -89.7 -3.531
13:03 1020 30.12 850 25.1 8.1 46.6 73 3.6 38.5 -89.7 -3.531
13:04 1020 30.12 850 25.1 8.1 46.5 73 3.5 38.3 -89.7 -3.531
13:05 1020 30.12 850 25.1 8.1 46.6 71 3.2 37.7 -89.7 -3.531
13:06 1020 30.12 850 25.1 8.1 46.5 69 2.7 36.9 -89.7 -3.531
13:07 1020 30.12 850 25.1 7.9 46.3 72 3.2 37.7 -89.7 -3.531
13:08 1020 30.12 850 25.1 7.9 46.3 70 2.8 37.1 -89.7 -3.531
13:09 1020 30.12 850 25.1 8 46.3 72 3.2 37.7 -89.7 -3.531
13:10 1020 30.12 850 25.1 7.9 46.2 69 2.6 36.8 -89.7 -3.531
13:11 1020 30.12 850 25.1 7.9 46.1 70 2.7 36.8 -89.7 -3.531
13:12 1020 30.12 849 25.07 7.9 46.2 70 2.8 37 -89.7 -3.531
13:13 1020 30.12 849 25.07 8 46.4 69 2.7 36.9 -89.6 -3.528
13:14 1020 30.12 849 25.07 8.1 46.6 71 3.1 37.6 -89.6 -3.528
13:15 1020 30.12 849 25.07 8.1 46.6 69 2.8 37 -89.6 -3.528
13:16 1020 30.12 849 25.07 8.1 46.5 72 3.4 38.2 -89.6 -3.528
13:17 1020 30.12 849 25.07 8.1 46.6 69 2.8 37.1 -89.6 -3.528
13:18 1020 30.12 849 25.07 8.1 46.6 69 2.8 37 -89.7 -3.531
13:19 1020 30.12 849 25.07 8 46.4 72 3.3 38 -89.7 -3.531
13:20 1020 30.12 849 25.07 8 46.5 70 2.8 37.1 -89.6 -3.528
13:21 1020 30.12 849 25.07 8 46.5 71 3.1 37.6 -89.6 -3.528
13:22 1020 30.12 849 25.07 8.2 46.8 70 3.2 37.7 -89.6 -3.528
13:23 1020 30.12 849 25.07 8.4 47.1 69 3 37.4 -89.6 -3.528
13:24 1020 30.12 849 25.07 8.5 47.3 71 3.5 38.3 -89.6 -3.528
13:25 1020 30.12 849 25.07 8.6 47.4 68 3.1 37.6 -89.6 -3.528
13:26 1020 30.12 849 25.07 8.6 47.4 68 3.1 37.5 -89.6 -3.528
13:27 1020 30.12 849 25.07 8.6 47.4 68 3 37.5 -89.6 -3.528
13:28 1020 30.12 849 25.07 8.5 47.3 67 2.8 37.1 -89.6 -3.528
13:29 1020 30.12 849 25.07 8.3 47 69 2.9 37.2 -89.6 -3.528
13:30 1020 30.12 849 25.07 8.3 46.9 68 2.7 36.8 -89.5 -3.524
13:31 1020 30.12 849 25.07 8.3 47 70 3.1 37.6 -89.5 -3.524
13:32 1020 30.12 849 25.07 8.4 47.2 69 3 37.5 -89.5 -3.524
13:33 1020 30.12 849 25.07 8.6 47.4 68 3 37.3 -89.5 -3.524
13:34 1020 30.12 849 25.07 8.6 47.5 68 3.1 37.5 -89.5 -3.524
13:35 1020 30.12 849 25.07 8.7 47.6 67 2.9 37.2 -89.5 -3.524
13:36 1020 30.12 849 25.07 8.7 47.6 67 3 37.4 -89.5 -3.524
13:37 1020 30.12 849 25.07 8.7 47.7 70 3.5 38.3 -89.5 -3.524
13:38 1020 30.12 849 25.07 8.9 47.9 68 3.3 38 -89.5 -3.524
13:39 1020 30.12 849 25.07 9 48.2 66 2.9 37.3 -89.5 -3.524
13:40 1020 30.12 849 25.07 9.2 48.5 64 2.7 36.8 -89.5 -3.524
13:41 1020 30.12 849 25.07 9.1 48.3 65 2.9 37.2 -89.5 -3.524
13:42 1020 30.12 849 25.07 9 48.1 67 3.2 37.8 -89.5 -3.524
13:43 1020 30.12 849 25.07 8.9 47.9 68 3.2 37.8 -89.5 -3.524
13:44 1020 30.12 849 25.07 8.7 47.7 66 2.8 37.1 -89.5 -3.524
13:45 1020 30.12 849 25.07 8.5 47.3 67 2.8 37.1 -89.5 -3.524
13:46 1019 30.09 849 25.07 8.4 47.2 69 3.1 37.5 -89.5 -3.524
13:47 1019 30.09 849 25.07 8.5 47.3 68 2.9 37.2 -89.5 -3.524
13:48 1019 30.09 849 25.07 8.6 47.4 68 3.1 37.5 -89.4 -3.52
13:49 1019 30.09 849 25.07 8.6 47.5 69 3.3 38 -89.4 -3.52
13:50 1019 30.09 849 25.07 8.7 47.6 68 3.2 37.7 -89.4 -3.52
13:51 1019 30.09 849 25.07 8.8 47.8 68 3.2 37.8 -89.4 -3.52
13:52 1019 30.09 849 25.07 8.7 47.7 66 2.9 37.2 -89.4 -3.52
13:53 1019 30.09 849 25.07 8.7 47.7 68 3.2 37.8 -89.4 -3.52
13:54 1019 30.09 849 25.07 8.8 47.8 67 2.9 37.2 -89.4 -3.52
13:55 1019 30.09 849 25.07 8.8 47.9 68 3.4 38 -89.4 -3.52
13:56 1019 30.09 848 25.04 9.1 48.3 65 2.8 37.1 -89.3 -3.516
13:57 1019 30.09 848 25.04 9.3 48.7 68 3.6 38.5 -89.3 -3.516
13:58 1019 30.09 848 25.04 9.5 49 63 2.7 36.9 -89.3 -3.516
13:59 1019 30.09 848 25.04 9.5 49 62 2.6 36.6 -89.3 -3.516
14:00 1019 30.09 848 25.04 9.3 48.8 66 3.2 37.8 -89.3 -3.516
14:01 1019 30.09 848 25.04 9.3 48.8 63 2.7 36.9 -89.3 -3.516
14:02 1019 30.09 848 25.04 9.3 48.7 64 2.9 37.3 -89.3 -3.516
14:03 1019 30.09 848 25.04 9.2 48.6 64 2.9 37.3 -89.3 -3.516
14:04 1019 30.09 848 25.04 9.3 48.7 65 3 37.4 -89.3 -3.516
14:05 1019 30.09 848 25.04 9.3 48.7 63 2.7 36.9 -89.3 -3.516
14:06 1019 30.09 848 25.04 9.3 48.7 64 2.7 36.9 -89.3 -3.516
14:07 1019 30.09 848 25.04 9.3 48.8 63 2.6 36.6 -89.3 -3.516
14:08 1019 30.09 848 25.04 9.5 49 62 2.5 36.5 -89.3 -3.516
14:09 1019 30.09 848 25.04 9.5 49.1 63 2.8 37.1 -89.3 -3.516
14:10 1019 30.09 848 25.04 9.4 48.9 65 3.2 37.7 -89.3 -3.516
14:11 1019 30.09 848 25.04 9.4 48.8 64 2.8 37.1 -89.3 -3.516
14:12 1019 30.09 848 25.04 9.3 48.8 64 2.8 37.1 -89.3 -3.516
14:13 1019 30.09 848 25.04 9.4 48.9 67 3.5 38.3 -89.2 -3.512
14:14 1019 30.09 848 25.04 9.4 48.8 65 3.2 37.7 -89.3 -3.516
14:15 1019 30.09 848 25.04 9.3 48.8 63 2.8 37 -89.3 -3.516
14:16 1019 30.09 848 25.04 9.3 48.8 63 2.7 36.9 -89.3 -3.516
14:17 1019 30.09 848 25.04 9.3 48.8 63 2.7 36.9 -89.3 -3.516
14:18 1019 30.09 848 25.04 9.3 48.8 62 2.5 36.6 -89.3 -3.516
14:19 1019 30.09 848 25.04 9.3 48.7 63 2.5 36.5 -89.3 -3.516
14:20 1019 30.09 848 25.04 9.2 48.6 64 2.8 37.1 -89.3 -3.516
14:21 1019 30.09 848 25.04 9.3 48.7 63 2.6 36.7 -89.2 -3.512
14:22 1019 30.09 848 25.04 9.3 48.7 64 2.9 37.3 -89.2 -3.512
14:23 1019 30.09 848 25.04 9.3 48.7 63 2.7 36.9 -89.2 -3.512
14:24 1019 30.09 848 25.04 9.3 48.7 65 3 37.4 -89.2 -3.512
14:25 1019 30.09 848 25.04 9.4 48.8 63 2.6 36.7 -89.2 -3.512
14:26 1019 30.09 848 25.04 9.4 48.9 63 2.8 37 -89.2 -3.512
14:27 1019 30.09 848 25.04 9.4 48.9 64 2.9 37.2 -89.2 -3.512
14:28 1019 30.09 848 25.04 9.4 49 66 3.4 38.1 -89.2 -3.512
14:29 1019 30.09 848 25.04 9.5 49.1 64 3 37.4 -89.2 -3.512
14:30 1019 30.09 848 25.04 9.5 49.1 64 3.1 37.6 -89.2 -3.512
14:31 1019 30.09 848 25.04 9.5 49.1 61 2.4 36.3 -89.2 -3.512
14:32 1019 30.09 848 25.04 9.4 49 62 2.5 36.6 -89.2 -3.512
14:33 1019 30.09 848 25.04 9.5 49.1 62 2.5 36.6 -89.2 -3.512
14:34 1019 30.09 848 25.04 9.5 49.1 62 2.6 36.7 -89.2 -3.512
14:35 1019 30.09 848 25.04 9.6 49.2 62 2.6 36.7 -89.2 -3.512
14:36 1019 30.09 848 25.04 9.6 49.4 63 2.9 37.3 -89.2 -3.512
14:37 1019 30.09 848 25.04 9.7 49.4 63 3.1 37.5 -89.2 -3.512
14:38 1019 30.09 848 25.04 9.7 49.4 61 2.7 36.8 -89.2 -3.512
14:39 1019 30.09 848 25.04 9.7 49.4 63 3.1 37.6 -89.2 -3.512
14:40 1019 30.09 848 25.04 9.7 49.4 64 3.2 37.7 -89.1 -3.508
14:41 1019 30.09 848 25.04 9.7 49.4 65 3.4 38.1 -89.1 -3.508
14:42 1019 30.09 848 25.04 9.8 49.6 65 3.5 38.3 -89.1 -3.508
14:43 1019 30.09 848 25.04 9.8 49.6 64 3.4 38.1 -89.1 -3.508
14:44 1019 30.09 848 25.04 9.9 49.7 63 3.2 37.7 -89.1 -3.508
14:45 1019 30.09 848 25.04 9.9 49.8 65 3.6 38.5 -89.1 -3.508
14:46 1019 30.09 848 25.04 10 49.9 63 3.2 37.7 -89.1 -3.508
14:47 1019 30.09 848 25.04 10.1 50.1 63 3.3 37.9 -89.1 -3.508
14:48 1019 30.09 848 25.04 10.2 50.3 63 3.6 38.4 -89.1 -3.508
14:49 1019 30.09 848 25.04 10.3 50.5 61 3 37.4 -89.1 -3.508
14:50 1019 30.09 848 25.04 10.3 50.6 62 3.5 38.2 -89.1 -3.508
14:51 1019 30.09 848 25.04 10.4 50.8 65 4.1 39.4 -89.1 -3.508
14:52 1019 30.09 848 25.04 10.8 51.4 61 3.6 38.5 -89.1 -3.508
14:53 1019 30.09 848 25.04 11 51.7 62 4.1 39.4 -89.1 -3.508
14:54 1019 30.09 848 25.04 10.9 51.6 61 3.7 38.7 -89.1 -3.508
14:55 1019 30.09 848 25.04 10.8 51.5 62 3.8 38.9 -89.1 -3.508
14:56 1019 30.09 848 25.04 10.7 51.3 60 3.4 38 -89.1 -3.508
14:57 1019 30.09 848 25.04 10.6 51.1 63 3.8 38.8 -89.1 -3.508
14:58 1019 30.09 848 25.04 10.7 51.2 63 3.9 38.9 -89.1 -3.508
14:59 1019 30.09 848 25.04 10.7 51.2 59 3.1 37.6 -89.1 -3.508
15:00 1018 30.06 848 25.04 10.6 51.1 64 4.1 39.4 -89 -3.504
15:01 1019 30.09 848 25.04 10.8 51.4 59 3.2 37.8 -89 -3.504
15:02 1018 30.06 848 25.04 10.9 51.7 59 3.3 37.9 -89 -3.504
15:03 1018 30.06 848 25.04 11 51.8 63 4.3 39.8 -89 -3.504
15:04 1018 30.06 848 25.04 11.1 52.1 63 4.4 40 -89 -3.504
15:05 1018 30.06 848 25.04 11.4 52.5 58 3.5 38.4 -89 -3.504
15:06 1018 30.06 848 25.04 11.5 52.7 60 4 39.2 -89 -3.504
15:07 1018 30.06 848 25.04 11.5 52.7 60 4.1 39.4 -88.9 -3.5
15:08 1018 30.06 848 25.04 11.5 52.7 58 3.5 38.3 -88.9 -3.5
15:09 1018 30.06 848 25.04 11.4 52.6 58 3.5 38.4 -88.9 -3.5
15:10 1018 30.06 848 25.04 11.4 52.5 57 3.3 38 -88.9 -3.5
15:11 1018 30.06 848 25.04 11.4 52.5 57 3.1 37.7 -88.9 -3.5
15:12 1018 30.06 848 25.04 11.2 52.2 57 3.1 37.6 -88.9 -3.5
15:13 1018 30.06 848 25.04 11.2 52.2 60 3.7 38.7 -88.9 -3.5
15:14 1018 30.06 848 25.04 11.3 52.4 60 4 39.1 -88.9 -3.5
15:15 1018 30.06 848 25.04 11.4 52.5 60 4.1 39.3 -88.8 -3.496
15:16 1018 30.06 848 25.04 11.5 52.7 57 3.3 38 -88.8 -3.496
15:17 1018 30.06 848 25.04 11.4 52.5 59 3.8 38.9 -88.8 -3.496
15:18 1018 30.06 848 25.04 11.6 52.8 56 3.1 37.5 -88.8 -3.496
15:19 1018 30.06 848 25.04 11.6 52.9 56 3.1 37.6 -88.8 -3.496
15:20 1018 30.06 848 25.04 11.5 52.7 56 3.2 37.8 -88.8 -3.496
15:21 1018 30.06 848 25.04 11.5 52.7 57 3.3 38 -88.8 -3.496
15:22 1018 30.06 848 25.04 11.6 52.8 56 3.2 37.7 -88.8 -3.496
15:23 1018 30.06 848 25.04 11.4 52.6 56 3 37.5 -88.8 -3.496
15:24 1018 30.06 847 25.01 11.3 52.3 55 2.7 36.9 -88.8 -3.496
15:25 1018 30.06 847 25.01 11.2 52.2 58 3.3 37.9 -88.8 -3.496
15:26 1018 30.06 847 25.01 11.2 52.2 60 3.9 38.9 -88.8 -3.496
15:27 1018 30.06 848 25.04 11.4 52.5 58 3.4 38.1 -88.7 -3.492
15:28 1018 30.06 848 25.04 11.5 52.8 57 3.5 38.3 -88.7 -3.492
15:29 1018 30.06 847 25.01 11.7 53 56 3.3 38 -88.7 -3.492
15:30 1018 30.06 847 25.01 11.7 53 56 3.3 38 -88.7 -3.492
15:31 1018 30.06 847 25.01 11.6 53 56 3.3 37.9 -88.7 -3.492
15:32 1018 30.06 847 25.01 11.6 52.9 57 3.5 38.3 -88.7 -3.492
15:33 1018 30.06 847 25.01 11.6 52.9 57 3.4 38.2 -88.6 -3.488
15:34 1018 30.06 847 25.01 11.7 53 58 3.6 38.5 -88.6 -3.488
15:35 1018 30.06 847 25.01 11.8 53.2 56 3.3 38 -88.6 -3.488
15:36 1018 30.06 847 25.01 11.8 53.3 56 3.3 37.9 -88.6 -3.488
15:37 1018 30.06 847 25.01 11.9 53.5 56 3.4 38.1 -88.6 -3.488
15:38 1018 30.06 847 25.01 12.1 53.7 54 3.1 37.6 -88.6 -3.488
15:39 1018 30.06 847 25.01 12.1 53.8 55 3.5 38.3 -88.6 -3.488
15:40 1018 30.06 847 25.01 12.2 53.9 54 3.2 37.7 -88.6 -3.488
15:41 1018 30.06 847 25.01 12.3 54.1 55 3.6 38.5 -88.6 -3.488
15:42 1018 30.06 847 25.01 12.4 54.3 55 3.7 38.6 -88.5 -3.484
15:43 1018 30.06 847 25.01 12.4 54.4 53 3.2 37.7 -88.5 -3.484
15:44 1018 30.06 847 25.01 12.4 54.4 54 3.4 38.2 -88.5 -3.484
15:45 1018 30.06 847 25.01 12.6 54.6 54 3.4 38.2 -88.5 -3.484
15:46 1018 30.06 847 25.01 12.7 54.9 53 3.4 38.1 -88.5 -3.484
15:47 1018 30.06 847 25.01 12.9 55.2 54 3.9 38.9 -88.5 -3.484
15:48 1018 30.06 847 25.01 13 55.4 52 3.3 38 -88.4 -3.48
15:49 1018 30.06 847 25.01 13 55.5 51 3.2 37.8 -88.4 -3.48
15:50 1018 30.06 847 25.01 13.1 55.6 51 3.1 37.6 -88.5 -3.484
15:51 1018 30.06 847 25.01 13 55.5 52 3.4 38.1 -88.4 -3.48
15:52 1018 30.06 847 25.01 13 55.3 52 3.5 38.3 -88.4 -3.48
15:53 1018 30.06 847 25.01 13 55.3 50 2.9 37.3 -88.4 -3.48
15:54 1018 30.06 847 25.01 12.9 55.3 51 3 37.4 -88.4 -3.48
15:55 1018 30.06 847 25.01 12.9 55.2 52 3.3 37.9 -88.4 -3.48
15:56 1018 30.06 847 25.01 13 55.3 50 2.9 37.2 -88.4 -3.48
15:57 1018 30.06 847 25.01 12.9 55.2 51 3.2 37.7 -88.4 -3.48
15:58 1018 30.06 847 25.01 12.9 55.3 51 3 37.4 -88.4 -3.48
15:59 1018 30.06 847 25.01 12.9 55.3 51 3.1 37.7 -88.4 -3.48
16:00 1018 30.06 847 25.01 12.9 55.3 51 3.1 37.6 -88.4 -3.48
16:01 1018 30.06 847 25.01 12.9 55.2 53 3.6 38.4 -88.3 -3.476
16:02 1018 30.06 847 25.01 13 55.3 50 2.9 37.2 -88.3 -3.476
16:03 1018 30.06 847 25.01 13 55.4 52 3.4 38.1 -88.3 -3.476
16:04 1018 30.06 847 25.01 13.2 55.8 52 3.6 38.4 -88.2 -3.472
16:05 1018 30.06 847 25.01 13.4 56.2 51 3.5 38.4 -88.2 -3.472
16:06 1018 30.06 847 25.01 13.4 56.2 51 3.5 38.2 -88.2 -3.472
16:07 1018 30.06 847 25.01 13.3 56 49 3 37.3 -88.2 -3.472
16:08 1018 30.06 847 25.01 13.2 55.7 51 3.2 37.8 -88.2 -3.472
16:09 1018 30.06 847 25.01 13 55.4 50 3 37.4 -88.2 -3.472
16:10 1018 30.06 847 25.01 13.1 55.6 50 3.1 37.6 -88.2 -3.472
16:11 1018 30.06 847 25.01 13.3 55.9 51 3.3 38 -88.1 -3.469
16:12 1018 30.06 847 25.01 13.5 56.3 50 3.3 37.9 -88.1 -3.469
16:13 1018 30.06 847 25.01 13.6 56.6 50 3.5 38.4 -88.1 -3.469
16:14 1018 30.06 847 25.01 13.8 56.8 50 3.7 38.7 -88.1 -3.469
16:15 1018 30.06 847 25.01 13.8 56.9 47 2.9 37.3 -88.1 -3.469
16:16 1018 30.06 847 25.01 13.9 57 51 3.9 39 -88 -3.465
16:17 1018 30.06 847 25.01 13.9 57 48 3 37.4 -88 -3.465
16:18 1018 30.06 847 25.01 13.8 56.9 48 3.1 37.5 -88 -3.465
16:19 1018 30.06 847 25.01 13.8 56.8 49 3.4 38.1 -88 -3.465
16:20 1017 30.03 847 25.01 13.9 57 48 3 37.4 -88 -3.465
16:21 1017 30.03 847 25.01 14 57.2 47 3 37.4 -88 -3.465
16:22 1018 30.06 847 25.01 14.1 57.3 48 3.3 37.9 -87.9 -3.461
16:23 1017 30.03 847 25.01 14.2 57.6 48 3.5 38.2 -87.9 -3.461
16:24 1017 30.03 847 25.01 14.3 57.8 48 3.4 38.2 -87.9 -3.461
16:25 1017 30.03 847 25.01 14.4 58 45 2.9 37.1 -87.9 -3.461
16:26 1017 30.03 847 25.01 14.6 58.3 44 2.6 36.7 -87.9 -3.461
16:27 1017 30.03 847 25.01 14.7 58.4 45 2.9 37.2 -87.9 -3.461
16:28 1017 30.03 847 25.01 14.6 58.3 46 3.1 37.6 -87.9 -3.461
16:29 1017 30.03 847 25.01 14.5 58.1 48 3.6 38.6 -87.8 -3.457
16:30 1017 30.03 847 25.01 14.6 58.2 48 3.8 38.8 -87.8 -3.457
16:31 1017 30.03 847 25.01 14.5 58.1 48 3.6 38.5 -87.8 -3.457
16:32 1017 30.03 847 25.01 14.3 57.7 50 4.1 39.5 -87.8 -3.457
16:33 1017 30.03 847 25.01 14.2 57.6 48 3.5 38.2 -87.8 -3.457
16:34 1017 30.03 847 25.01 14.3 57.8 50 4 39.2 -87.7 -3.453
16:35 1017 30.03 847 25.01 14.3 57.8 47 3.2 37.8 -87.7 -3.453
16:36 1017 30.03 847 25.01 14.4 57.9 47 3.3 38 -87.7 -3.453
16:37 1017 30.03 847 25.01 14.4 57.9 46 3.2 37.7 -87.7 -3.453
16:38 1017 30.03 847 25.01 14.5 58.1 47 3.5 38.2 -87.7 -3.453
16:39 1017 30.03 847 25.01 14.6 58.3 48 3.7 38.7 -87.7 -3.453
16:40 1017 30.03 847 25.01 14.7 58.4 45 3.1 37.5 -87.7 -3.453
16:41 1017 30.03 847 25.01 14.8 58.6 46 3.4 38 -87.7 -3.453
16:42 1017 30.03 847 25.01 14.8 58.7 45 3 37.4 -87.6 -3.449
16:43 1017 30.03 847 25.01 14.6 58.3 46 3.3 37.9 -87.7 -3.453
16:44 1017 30.03 847 25.01 14.4 57.9 48 3.5 38.3 -87.7 -3.453
16:45 1017 30.03 847 25.01 14.3 57.7 46 3 37.5 -87.7 -3.453
16:46 1017 30.03 847 25.01 14.2 57.5 47 3.1 37.6 -87.7 -3.453
16:47 1017 30.03 847 25.01 14.3 57.7 47 3.2 37.8 -87.6 -3.449
16:48 1017 30.03 847 25.01 14.3 57.8 47 3.3 37.9 -87.6 -3.449
16:49 1017 30.03 847 25.01 14.4 57.9 46 3.1 37.6 -87.6 -3.449
16:50 1017 30.03 847 25.01 14.3 57.8 46 2.9 37.3 -87.6 -3.449
16:51 1017 30.03 847 25.01 14.3 57.7 46 2.9 37.2 -87.6 -3.449
16:52 1017 30.03 846 24.98 14.3 57.7 48 3.6 38.5 -87.6 -3.449
16:53 1017 30.03 846 24.98 14.3 57.7 48 3.4 38.1 -87.6 -3.449
16:54 1017 30.03 846 24.98 14.2 57.5 48 3.3 37.9 -87.5 -3.445
16:55 1017 30.03 846 24.98 14.1 57.4 48 3.4 38 -87.5 -3.445
16:56 1017 30.03 847 25.01 14.1 57.3 46 2.7 36.9 -87.5 -3.445
16:57 1017 30.03 847 25.01 14 57.1 48 3.1 37.6 -87.6 -3.449
16:58 1017 30.03 847 25.01 13.9 57.1 47 3 37.4 -87.5 -3.445
16:59 1017 30.03 846 24.98 14 57.2 47 3 37.4 -87.5 -3.445
17:00 1017 30.03 846 24.98 14.2 57.6 46 2.7 36.9 -87.5 -3.445
17:01 1017 30.03 846 24.98 14.3 57.8 47 3.3 37.9 -87.5 -3.445
17:02 1017 30.03 846 24.98 14.3 57.8 48 3.5 38.3 -87.5 -3.445
17:03 1017 30.03 846 24.98 14.2 57.5 48 3.4 38.1 -87.5 -3.445
17:04 1017 30.03 846 24.98 14.1 57.3 47 3 37.5 -87.5 -3.445
17:05 1017 30.03 846 24.98 14 57.2 46 2.7 36.9 -87.5 -3.445
17:06 1017 30.03 846 24.98 13.9 57.1 46 2.5 36.5 -87.5 -3.445
17:07 1017 30.03 846 24.98 13.9 57 46 2.7 36.8 -87.5 -3.445
17:08 1017 30.03 846 24.98 13.8 56.8 48 3 37.3 -87.5 -3.445
17:09 1017 30.03 846 24.98 13.8 56.8 49 3.2 37.8 -87.5 -3.445
17:10 1017 30.03 846 24.98 13.8 56.9 47 2.9 37.2 -87.4 -3.441
17:11 1017 30.03 846 24.98 13.9 57 47 2.9 37.2 -87.4 -3.441
17:12 1017 30.03 846 24.98 14 57.1 47 3 37.4 -87.4 -3.441
17:13 1017 30.03 847 25.01 14 57.1 48 3.2 37.7 -87.4 -3.441
17:14 1017 30.03 846 24.98 13.9 57 49 3.5 38.3 -87.4 -3.441
17:15 1017 30.03 847 25.01 13.8 56.9 49 3.4 38.1 -87.4 -3.441
17:16 1017 30.03 846 24.98 13.8 56.8 49 3.2 37.8 -87.4 -3.441
17:17 1017 30.03 846 24.98 13.7 56.6 51 3.9 39 -87.4 -3.441
17:18 1017 30.03 846 24.98 13.7 56.7 50 3.5 38.3 -87.4 -3.441
17:19 1017 30.03 846 24.98 13.8 56.9 48 3.2 37.7 -87.4 -3.441
17:20 1017 30.03 846 24.98 13.8 56.8 50 3.6 38.4 -87.4 -3.441
17:21 1017 30.03 846 24.98 13.8 56.8 49 3.3 38 -87.4 -3.441
17:22 1017 30.03 846 24.98 13.7 56.7 50 3.7 38.6 -87.4 -3.441
17:23 1017 30.03 846 24.98 13.7 56.6 50 3.6 38.5 -87.4 -3.441
17:24 1017 30.03 846 24.98 13.6 56.5 49 3.2 37.8 -87.4 -3.441
17:25 1017 30.03 846 24.98 13.6 56.5 49 3.2 37.8 -87.4 -3.441
17:26 1017 30.03 846 24.98 13.6 56.5 50 3.4 38.2 -87.4 -3.441
17:27 1017 30.03 846 24.98 13.7 56.6 50 3.4 38.1 -87.4 -3.441
17:28 1017 30.03 846 24.98 13.6 56.4 51 3.6 38.5 -87.4 -3.441
17:29 1017 30.03 846 24.98 13.6 56.4 50 3.5 38.3 -87.4 -3.441
17:30 1017 30.03 846 24.98 13.5 56.4 51 3.8 38.8 -87.4 -3.441
17:31 1017 30.03 846 24.98 13.5 56.4 52 4 39.2 -87.4 -3.441
17:32 1017 30.03 846 24.98 13.5 56.3 52 3.9 39.1 -87.4 -3.441
17:33 1017 30.03 846 24.98 13.4 56.2 53 4.1 39.4 -87.4 -3.441
17:34 1017 30.03 846 24.98 13.4 56.1 52 3.9 39 -87.4 -3.441
17:35 1017 30.03 846 24.98 13.3 56 52 3.8 38.9 -87.4 -3.441
17:36 1017 30.03 846 24.98 13.3 55.9 53 3.9 38.9 -87.4 -3.441
17:37 1017 30.03 846 24.98 13.3 55.9 52 3.7 38.6 -87.4 -3.441
17:38 1017 30.03 846 24.98 13.3 55.9 50 3.2 37.7 -87.5 -3.445
17:39 1017 30.03 846 24.98 13.3 55.9 51 3.3 38 -87.5 -3.445
17:40 1017 30.03 846 24.98 13.2 55.8 51 3.3 38 -87.5 -3.445
17:41 1017 30.03 846 24.98 13.1 55.6 52 3.6 38.4 -87.5 -3.445
17:42 1017 30.03 846 24.98 13 55.3 52 3.5 38.2 -87.5 -3.445
17:43 1017 30.03 846 24.98 12.9 55.1 55 4 39.2 -87.5 -3.445
17:44 1017 30.03 846 24.98 12.7 54.9 55 3.9 39.1 -87.5 -3.445
17:45 1017 30.03 846 24.98 12.6 54.6 57 4.3 39.7 -87.5 -3.445
17:46 1017 30.03 846 24.98 12.4 54.3 58 4.5 40.1 -87.5 -3.445
17:47 1017 30.03 846 24.98 12.2 54 59 4.5 40.1 -87.5 -3.445
17:48 1017 30.03 846 24.98 12.1 53.7 58 4.2 39.5 -87.5 -3.445
17:49 1017 30.03 846 24.98 12 53.7 59 4.2 39.6 -87.6 -3.449
17:50 1017 30.03 846 24.98 12.1 53.7 59 4.3 39.8 -87.6 -3.449
17:51 1017 30.03 846 24.98 12.1 53.7 59 4.4 39.8 -87.6 -3.449
17:52 1017 30.03 846 24.98 12.1 53.8 59 4.3 39.8 -87.6 -3.449
17:53 1017 30.03 846 24.98 12.1 53.8 58 4.2 39.5 -87.6 -3.449
17:54 1017 30.03 846 24.98 12.1 53.9 59 4.4 39.8 -87.6 -3.449
17:55 1017 30.03 846 24.98 12.1 53.7 60 4.5 40.1 -87.6 -3.449
17:56 1017 30.03 846 24.98 12 53.6 60 4.6 40.2 -87.6 -3.449
17:57 1017 30.03 846 24.98 11.9 53.3 61 4.7 40.4 -87.6 -3.449
17:58 1017 30.03 846 24.98 11.8 53.2 61 4.6 40.3 -87.6 -3.449
17:59 1017 30.03 846 24.98 11.6 52.9 62 4.6 40.3 -87.6 -3.449
18:00 1017 30.03 846 24.98 11.6 52.8 63 4.7 40.5 -87.6 -3.449
18:01 1017 30.03 846 24.98 11.5 52.6 63 4.7 40.5 -87.6 -3.449
18:02 1017 30.03 846 24.98 11.4 52.5 64 4.8 40.7 -87.6 -3.449
18:03 1017 30.03 846 24.98 11.3 52.3 63 4.5 40 -87.6 -3.449
18:04 1017 30.03 846 24.98 11.2 52.2 63 4.4 40 -87.6 -3.449
18:05 1017 30.03 846 24.98 11.2 52.1 62 4.2 39.6 -87.6 -3.449
18:06 1017 30.03 846 24.98 11.2 52.2 62 4.2 39.6 -87.7 -3.453
18:07 1017 30.03 846 24.98 11.3 52.3 62 4.3 39.8 -87.7 -3.453
18:08 1017 30.03 846 24.98 11.3 52.3 62 4.4 39.8 -87.7 -3.453
18:09 1017 30.03 846 24.98 11.3 52.3 63 4.4 39.9 -87.7 -3.453
18:10 1017 30.03 846 24.98 11.2 52.2 62 4.3 39.8 -87.7 -3.453
18:11 1017 30.03 846 24.98 11.2 52.2 63 4.4 40 -87.7 -3.453
18:12 1017 30.03 846 24.98 11.2 52.1 62 4.3 39.7 -87.7 -3.453
18:13 1017 30.03 846 24.98 11.1 52 63 4.4 40 -87.7 -3.453
18:14 1017 30.03 846 24.98 10.9 51.5 64 4.4 39.9 -87.7 -3.453
18:15 1017 30.03 846 24.98 10.7 51.3 64 4.3 39.8 -87.7 -3.453
18:16 1017 30.03 846 24.98 10.7 51.3 65 4.4 40 -87.7 -3.453
18:17 1017 30.03 846 24.98 10.8 51.4 64 4.3 39.8 -87.7 -3.453
18:18 1017 30.03 846 24.98 10.8 51.4 64 4.3 39.8 -87.7 -3.453
18:19 1017 30.03 846 24.98 10.8 51.4 64 4.3 39.8 -87.8 -3.457
18:20 1017 30.03 846 24.98 10.7 51.2 65 4.3 39.8 -87.8 -3.457
18:21 1017 30.03 846 24.98 10.4 50.8 66 4.4 39.9 -87.8 -3.457
18:22 1017 30.03 847 25.01 10.1 50.1 67 4.3 39.8 -87.8 -3.457
18:23 1017 30.03 846 24.98 9.8 49.7 68 4.3 39.8 -87.8 -3.457
18:24 1017 30.03 846 24.98 9.5 49.1 70 4.4 40 -87.8 -3.457
18:25 1017 30.03 846 24.98 9.3 48.7 73 4.7 40.4 -87.8 -3.457
18:26 1017 30.03 846 24.98 9.2 48.5 73 4.7 40.4 -87.8 -3.457
18:27 1017 30.03 846 24.98 9.2 48.6 73 4.5 40.2 -87.7 -3.453
18:28 1017 30.03 846 24.98 9.4 48.8 71 4.5 40 -87.7 -3.453
18:29 1017 30.03 846 24.98 9.5 49.1 70 4.3 39.8 -87.7 -3.453
18:30 1017 30.03 846 24.98 9.6 49.4 70 4.4 39.9 -87.7 -3.453
18:31 1017 30.03 846 24.98 9.7 49.5 69 4.4 40 -87.6 -3.449
18:32 1017 30.03 846 24.98 9.8 49.6 69 4.5 40 -87.6 -3.449
18:33 1017 30.03 846 24.98 9.7 49.4 69 4.4 39.9 -87.6 -3.449
18:34 1017 30.03 846 24.98 9.6 49.4 70 4.4 40 -87.6 -3.449
18:35 1017 30.03 846 24.98 9.5 49.2 70 4.4 39.9 -87.6 -3.449
18:36 1017 30.03 846 24.98 9.5 49.2 70 4.4 39.9 -87.6 -3.449
18:37 1017 30.03 846 24.98 9.5 49.2 70 4.3 39.8 -87.6 -3.449
18:38 1017 30.03 846 24.98 9.6 49.2 70 4.3 39.8 -87.6 -3.449
18:39 1017 30.03 846 24.98 9.6 49.2 70 4.5 40.1 -87.6 -3.449
18:40 1017 30.03 846 24.98 9.5 49 71 4.5 40.1 -87.6 -3.449
18:41 1017 30.03 846 24.98 9.4 48.9 71 4.4 40 -87.6 -3.449
18:42 1017 30.03 846 24.98 9.4 48.9 71 4.5 40 -87.6 -3.449
18:43 1017 30.03 846 24.98 9.4 48.9 71 4.4 39.9 -87.6 -3.449
18:44 1017 30.03 846 24.98 9.4 49 70 4.3 39.8 -87.6 -3.449
18:45 1017 30.03 846 24.98 9.5 49 70 4.3 39.8 -87.6 -3.449
18:46 1017 30.03 846 24.98 9.3 48.8 70 4.2 39.5 -87.6 -3.449
18:47 1017 30.03 846 24.98 9.1 48.5 72 4.3 39.7 -87.6 -3.449
18:48 1017 30.03 846 24.98 9.1 48.3 72 4.3 39.7 -87.5 -3.445
18:49 1017 30.03 846 24.98 9.1 48.4 71 4.2 39.5 -87.5 -3.445
18:50 1017 30.03 846 24.98 9.1 48.4 71 4.2 39.5 -87.6 -3.449
18:51 1017 30.03 846 24.98 9.2 48.5 71 4.1 39.5 -87.6 -3.449
18:52 1017 30.03 846 24.98 9.2 48.6 70 4.1 39.4 -87.6 -3.449
18:53 1017 30.03 846 24.98 9.3 48.7 70 4.2 39.5 -87.6 -3.449
18:54 1017 30.03 846 24.98 9.2 48.5 68 3.6 38.5 -87.6 -3.449
18:55 1017 30.03 846 24.98 8.8 47.8 69 3.4 38.2 -87.6 -3.449
18:56 1017 30.03 846 24.98 8.4 47.1 72 3.6 38.6 -87.6 -3.449
18:57 1017 30.03 846 24.98 8.1 46.6 73 3.5 38.3 -87.6 -3.449
18:58 1017 30.03 846 24.98 7.7 45.9 72 3.1 37.5 -87.6 -3.449
18:59 1017 30.03 847 25.01 7.1 44.8 76 3.2 37.7 -87.6 -3.449
19:00 1017 30.03 847 25.01 6.7 44 78 3.2 37.7 -87.5 -3.445
19:01 1017 30.03 847 25.01 6.4 43.5 82 3.5 38.3 -87.4 -3.441
19:02 1017 30.03 847 25.01 6.3 43.4 85 3.9 39.1 -87.4 -3.441
19:03 1017 30.03 847 25.01 6.7 44 84 4.1 39.4 -87.3 -3.437
19:04 1017 30.03 847 25.01 7.1 44.8 80 4 39.1 -87.2 -3.433
19:05 1017 30.03 847 25.01 7.3 45.1 80 4 39.2 -87.2 -3.433
19:06 1017 30.03 847 25.01 7.4 45.4 79 4 39.2 -87.2 -3.433
19:07 1017 30.03 847 25.01 7.8 46 77 3.9 39.1 -87.2 -3.433
19:08 1017 30.03 847 25.01 8.3 46.9 74 3.9 39 -87.3 -3.437
19:09 1017 30.03 847 25.01 8.6 47.4 70 3.4 38.2 -87.3 -3.437
19:10 1017 30.03 846 24.98 8 46.4 71 3 37.3 -87.4 -3.441
19:11 1017 30.03 847 25.01 7.3 45.1 74 3 37.4 -87.4 -3.441
19:12 1017 30.03 847 25.01 6.9 44.4 78 3.3 38 -87.4 -3.441
19:13 1017 30.03 847 25.01 6.7 44 79 3.2 37.8 -87.4 -3.441
19:14 1017 30.03 847 25.01 6.4 43.6 81 3.4 38.2 -87.5 -3.445
19:15 1017 30.03 847 25.01 6.3 43.3 80 3.1 37.7 -87.5 -3.445
19:16 1017 30.03 847 25.01 6.2 43.1 82 3.3 38 -87.5 -3.445
19:17 1017 30.03 847 25.01 6 42.7 80 2.8 37 -87.5 -3.445
19:18 1017 30.03 846 24.98 5.6 42.1 82 2.8 37 -87.5 -3.445
19:19 1017 30.03 846 24.98 5.3 41.6 84 2.9 37.2 -87.5 -3.445
19:20 1017 30.03 846 24.98 5.2 41.3 84 2.6 36.8 -87.5 -3.445
19:21 1017 30.03 846 24.98 5 41 85 2.6 36.7 -87.5 -3.445
19:22 1017 30.03 847 25.01 4.9 40.8 85 2.6 36.7 -87.5 -3.445
19:23 1017 30.03 847 25.01 4.7 40.5 86 2.6 36.7 -87.5 -3.445
19:24 1017 30.03 847 25.01 4.7 40.5 87 2.8 37 -87.5 -3.445
19:25 1017 30.03 847 25.01 4.8 40.6 89 3.1 37.6 -87.5 -3.445
19:26 1017 30.03 847 25.01 5 41 88 3.2 37.8 -87.5 -3.445
19:27 1017 30.03 847 25.01 5.2 41.3 87 3.1 37.6 -87.5 -3.445
19:28 1017 30.03 847 25.01 5.3 41.5 85 3 37.4 -87.5 -3.445
19:29 1017 30.03 847 25.01 5.3 41.5 85 3 37.3 -87.5 -3.445
19:30 1017 30.03 847 25.01 5.3 41.5 85 2.9 37.3 -87.5 -3.445
19:31 1017 30.03 847 25.01 5.2 41.4 86 3 37.5 -87.5 -3.445
19:32 1017 30.03 847 25.01 5.2 41.4 86 3 37.4 -87.6 -3.449
19:33 1017 30.03 847 25.01 5.1 41.3 87 3.1 37.6 -87.6 -3.449
19:34 1017 30.03 847 25.01 5.2 41.3 87 3.1 37.6 -87.6 -3.449
19:35 1017 30.03 847 25.01 5.1 41.2 87 3.1 37.6 -87.6 -3.449
19:36 1017 30.03 847 25.01 5.1 41.2 88 3.3 37.9 -87.6 -3.449
19:37 1017 30.03 847 25.01 5.2 41.4 88 3.5 38.2 -87.6 -3.449
19:38 1017 30.03 847 25.01 5.4 41.7 87 3.4 38.1 -87.7 -3.453
19:39 1017 30.03 847 25.01 5.4 41.8 88 3.5 38.4 -87.7 -3.453
19:40 1017 30.03 847 25.01 5.6 42.1 87 3.6 38.4 -87.7 -3.453
19:41 1017 30.03 847 25.01 5.7 42.2 86 3.6 38.4 -87.7 -3.453
19:42 1017 30.03 847 25.01 5.8 42.4 86 3.5 38.4 -87.7 -3.453
19:43 1017 30.03 847 25.01 5.8 42.4 85 3.5 38.2 -87.7 -3.453
19:44 1017 30.03 847 25.01 5.7 42.3 85 3.4 38.1 -87.7 -3.453
19:45 1017 30.03 847 25.01 5.6 42.1 85 3.4 38.1 -87.7 -3.453
19:46 1017 30.03 847 25.01 5.5 41.9 86 3.4 38.1 -87.7 -3.453
19:47 1017 30.03 847 25.01 5.5 41.9 86 3.4 38.2 -87.7 -3.453
19:48 1017 30.03 847 25.01 5.5 41.9 86 3.4 38.2 -87.8 -3.457
19:49 1017 30.03 847 25.01 5.5 41.9 87 3.4 38.2 -87.8 -3.457
19:50 1017 30.03 847 25.01 5.5 41.9 87 3.4 38.2 -87.8 -3.457
19:51 1017 30.03 847 25.01 5.4 41.8 87 3.5 38.3 -87.8 -3.457
19:52 1017 30.03 847 25.01 5.4 41.7 87 3.5 38.2 -87.8 -3.457
19:53 1017 30.03 847 25.01 5.4 41.7 88 3.5 38.3 -87.8 -3.457
19:54 1017 30.03 846 24.98 5.4 41.7 88 3.6 38.4 -87.8 -3.457
19:55 1017 30.03 846 24.98 5.4 41.7 88 3.5 38.2 -87.8 -3.457
19:56 1017 30.03 846 24.98 5.3 41.5 88 3.5 38.2 -87.9 -3.461
19:57 1017 30.03 846 24.98 5.2 41.4 88 3.4 38.2 -87.9 -3.461
19:58 1017 30.03 846 24.98 5.1 41.3 89 3.4 38.2 -87.9 -3.461
19:59 1017 30.03 846 24.98 5.1 41.1 89 3.4 38.1 -87.9 -3.461
20:00 1017 30.03 846 24.98 5 41 89 3.3 37.9 -87.9 -3.461
20:01 1017 30.03 846 24.98 4.9 40.9 89 3.2 37.7 -87.9 -3.461
20:02 1017 30.03 847 25.01 4.8 40.7 89 3.1 37.6 -87.9 -3.461
20:03 1017 30.03 847 25.01 4.7 40.5 89 3.1 37.6 -87.9 -3.461
20:04 1018 30.06 847 25.01 4.7 40.5 90 3.1 37.7 -87.9 -3.461
20:05 1018 30.06 847 25.01 4.7 40.4 90 3.2 37.8 -87.9 -3.461
20:06 1018 30.06 847 25.01 4.6 40.3 91 3.2 37.8 -87.9 -3.461
20:07 1018 30.06 847 25.01 4.6 40.3 91 3.2 37.8 -87.9 -3.461
20:08 1017 30.03 847 25.01 4.7 40.4 91 3.4 38 -87.9 -3.461
20:09 1018 30.06 847 25.01 4.8 40.6 91 3.5 38.2 -87.9 -3.461
20:10 1018 30.06 847 25.01 4.9 40.8 90 3.3 38 -87.9 -3.461
20:11 1018 30.06 847 25.01 4.9 40.8 89 3.2 37.8 -87.9 -3.461
20:12 1018 30.06 847 25.01 4.8 40.7 89 3.2 37.7 -87.9 -3.461
20:13 1018 30.06 847 25.01 4.8 40.6 89 3.1 37.6 -87.8 -3.457
20:14 1018 30.06 847 25.01 4.7 40.4 90 3.1 37.6 -87.8 -3.457
20:15 1018 30.06 847 25.01 4.6 40.3 91 3.3 37.9 -87.8 -3.457
20:16 1018 30.06 847 25.01 4.7 40.5 92 3.5 38.3 -87.9 -3.461
20:17 1018 30.06 847 25.01 5 41 91 3.7 38.6 -87.9 -3.461
20:18 1018 30.06 847 25.01 5.2 41.4 90 3.7 38.7 -87.9 -3.461
20:19 1018 30.06 847 25.01 5.5 41.9 88 3.7 38.7 -87.9 -3.461
20:20 1018 30.06 847 25.01 5.8 42.5 86 3.7 38.7 -87.9 -3.461
20:21 1018 30.06 847 25.01 6 42.8 86 3.8 38.8 -87.9 -3.461
20:22 1018 30.06 847 25.01 6.1 43 85 3.8 38.9 -87.9 -3.461
20:23 1018 30.06 847 25.01 6.3 43.3 85 3.9 39 -87.9 -3.461
20:24 1018 30.06 847 25.01 6.5 43.6 82 3.7 38.7 -88 -3.465
20:25 1017 30.03 847 25.01 6.6 43.9 82 3.8 38.9 -88 -3.465
20:26 1018 30.06 847 25.01 6.7 44.1 80 3.5 38.3 -88 -3.465
20:27 1018 30.06 847 25.01 6.6 43.9 80 3.3 38 -88 -3.465
20:28 1018 30.06 847 25.01 6.3 43.4 81 3.3 37.9 -88 -3.465
20:29 1018 30.06 847 25.01 6.2 43.2 83 3.6 38.5 -88 -3.465
20:30 1018 30.06 847 25.01 6.2 43.2 83 3.5 38.3 -88 -3.465
20:31 1018 30.06 847 25.01 6.1 42.9 82 3.2 37.8 -88 -3.465
20:32 1018 30.06 847 25.01 5.8 42.4 83 3.1 37.5 -88 -3.465
20:33 1018 30.06 847 25.01 5.5 41.8 84 3 37.3 -88 -3.465
20:34 1018 30.06 847 25.01 5.3 41.5 86 3.1 37.5 -88 -3.465
20:35 1018 30.06 847 25.01 5.2 41.3 86 3.1 37.6 -88 -3.465
20:36 1018 30.06 847 25.01 5.1 41.2 86 3 37.5 -88 -3.465
20:37 1018 30.06 847 25.01 5 41.1 86 2.9 37.3 -88 -3.465
20:38 1018 30.06 847 25.01 4.9 40.8 87 2.9 37.3 -88 -3.465
20:39 1018 30.06 847 25.01 4.9 40.7 88 3.1 37.6 -88.1 -3.469
20:40 1018 30.06 847 25.01 4.9 40.9 88 3.1 37.5 -88.1 -3.469
20:41 1018 30.06 847 25.01 5 41.1 87 3.1 37.5 -88.1 -3.469
20:42 1018 30.06 847 25.01 5.1 41.2 87 3.1 37.5 -88.1 -3.469
20:43 1018 30.06 847 25.01 5.1 41.2 87 3.1 37.5 -88.1 -3.469
20:44 1018 30.06 847 25.01 5.1 41.2 87 3.2 37.7 -88.1 -3.469
20:45 1018 30.06 847 25.01 5.1 41.3 88 3.3 37.9 -88.1 -3.469
20:46 1018 30.06 847 25.01 5.1 41.3 87 3.2 37.7 -88.1 -3.469
20:47 1018 30.06 847 25.01 5.1 41.2 87 3.2 37.7 -88.2 -3.472
20:48 1018 30.06 847 25.01 5.1 41.2 88 3.2 37.8 -88.2 -3.472
20:49 1018 30.06 847 25.01 5.3 41.5 87 3.2 37.8 -88.2 -3.472
20:50 1018 30.06 847 25.01 5.3 41.6 87 3.3 37.9 -88.2 -3.472
20:51 1018 30.06 847 25.01 5.3 41.5 87 3.3 38 -88.2 -3.472
20:52 1018 30.06 847 25.01 5.2 41.3 88 3.4 38 -88.2 -3.472
20:53 1018 30.06 847 25.01 5.1 41.3 89 3.5 38.3 -88.2 -3.472
20:54 1018 30.06 847 25.01 5.3 41.6 88 3.5 38.2 -88.2 -3.472
20:55 1018 30.06 847 25.01 5.5 41.9 87 3.5 38.3 -88.2 -3.472
20:56 1018 30.06 847 25.01 5.6 42 87 3.6 38.4 -88.2 -3.472
20:57 1018 30.06 847 25.01 5.6 42.1 87 3.6 38.5 -88.2 -3.472
20:58 1018 30.06 847 25.01 5.6 42 87 3.6 38.5 -88.2 -3.472
20:59 1018 30.06 847 25.01 5.5 41.9 88 3.6 38.5 -88.2 -3.472
21:00 1018 30.06 847 25.01 5.5 41.9 88 3.7 38.6 -88.2 -3.472
21:01 1018 30.06 847 25.01 5.5 41.9 88 3.7 38.6 -88.2 -3.472
21:02 1018 30.06 847 25.01 5.5 41.8 89 3.7 38.7 -88.2 -3.472
21:03 1018 30.06 847 25.01 5.4 41.8 89 3.7 38.7 -88.2 -3.472
21:04 1018 30.06 847 25.01 5.4 41.7 89 3.8 38.8 -88.2 -3.472
21:05 1018 30.06 847 25.01 5.3 41.6 90 3.8 38.8 -88.2 -3.472
21:06 1018 30.06 847 25.01 5.3 41.6 90 3.8 38.8 -88.2 -3.472
21:07 1018 30.06 847 25.01 5.3 41.6 90 3.8 38.8 -88.2 -3.472
21:08 1018 30.06 847 25.01 5.3 41.6 90 3.8 38.9 -88.2 -3.472
21:09 1018 30.06 847 25.01 5.3 41.6 90 3.8 38.9 -88.2 -3.472
21:10 1018 30.06 847 25.01 5.3 41.6 90 3.8 38.9 -88.2 -3.472
21:11 1018 30.06 847 25.01 5.3 41.6 90 3.9 39 -88.3 -3.476
21:12 1018 30.06 847 25.01 5.3 41.6 90 3.9 38.9 -88.3 -3.476
21:13 1018 30.06 847 25.01 5.4 41.6 90 3.9 39 -88.3 -3.476
21:14 1018 30.06 847 25.01 5.4 41.7 90 3.9 39.1 -88.3 -3.476
21:15 1018 30.06 847 25.01 5.4 41.7 90 3.9 39.1 -88.3 -3.476
21:16 1018 30.06 847 25.01 5.4 41.7 91 4 39.2 -88.3 -3.476
21:17 1018 30.06 847 25.01 5.4 41.8 91 4 39.2 -88.3 -3.476
21:18 1018 30.06 847 25.01 5.5 41.8 91 4 39.3 -88.3 -3.476
21:19 1018 30.06 847 25.01 5.5 41.9 91 4.1 39.4 -88.3 -3.476
21:20 1018 30.06 847 25.01 5.5 41.9 91 4.1 39.4 -88.3 -3.476
21:21 1018 30.06 847 25.01 5.5 41.9 91 4.1 39.4 -88.3 -3.476
21:22 1018 30.06 847 25.01 5.6 42 91 4.2 39.5 -88.3 -3.476
21:23 1018 30.06 847 25.01 5.6 42.1 90 4.2 39.5 -88.3 -3.476
21:24 1018 30.06 847 25.01 5.6 42.1 90 4.2 39.5 -88.3 -3.476
21:25 1018 30.06 847 25.01 5.7 42.3 90 4.2 39.6 -88.3 -3.476
21:26 1018 30.06 847 25.01 5.7 42.3 90 4.2 39.6 -88.3 -3.476
21:27 1018 30.06 847 25.01 5.8 42.4 90 4.2 39.6 -88.3 -3.476
21:28 1018 30.06 847 25.01 5.8 42.5 90 4.3 39.7 -88.3 -3.476
21:29 1018 30.06 847 25.01 5.8 42.5 90 4.3 39.7 -88.3 -3.476
21:30 1018 30.06 847 25.01 5.9 42.5 90 4.3 39.7 -88.3 -3.476
21:31 1018 30.06 847 25.01 5.9 42.6 90 4.3 39.7 -88.3 -3.476
21:32 1018 30.06 847 25.01 5.9 42.6 89 4.3 39.7 -88.3 -3.476
21:33 1018 30.06 847 25.01 5.9 42.6 89 4.2 39.6 -88.3 -3.476
21:34 1018 30.06 847 25.01 5.9 42.7 89 4.2 39.6 -88.3 -3.476
21:35 1018 30.06 847 25.01 6 42.7 89 4.3 39.7 -88.3 -3.476
21:36 1018 30.06 847 25.01 6 42.7 89 4.3 39.7 -88.3 -3.476
21:37 1018 30.06 847 25.01 6 42.7 89 4.3 39.7 -88.3 -3.476
21:38 1018 30.06 847 25.01 6 42.8 89 4.3 39.8 -88.3 -3.476
21:39 1018 30.06 847 25.01 6 42.8 89 4.3 39.7 -88.3 -3.476
21:40 1018 30.06 847 25.01 6 42.8 89 4.3 39.8 -88.3 -3.476
21:41 1018 30.06 847 25.01 6 42.8 89 4.3 39.7 -88.3 -3.476
21:42 1018 30.06 847 25.01 6 42.8 89 4.3 39.7 -88.3 -3.476
21:43 1018 30.06 847 25.01 6 42.8 89 4.3 39.8 -88.3 -3.476
21:44 1018 30.06 847 25.01 6 42.7 89 4.3 39.8 -88.3 -3.476
21:45 1018 30.06 847 25.01 5.9 42.7 89 4.3 39.8 -88.3 -3.476
21:46 1018 30.06 847 25.01 5.9 42.7 89 4.3 39.7 -88.3 -3.476
21:47 1018 30.06 847 25.01 6 42.7 89 4.3 39.7 -88.3 -3.476
21:48 1018 30.06 847 25.01 5.9 42.7 89 4.3 39.7 -88.3 -3.476
21:49 1018 30.06 847 25.01 5.9 42.6 89 4.2 39.6 -88.3 -3.476
21:50 1018 30.06 847 25.01 5.9 42.5 89 4.2 39.5 -88.3 -3.476
21:51 1018 30.06 847 25.01 5.8 42.5 89 4.2 39.5 -88.3 -3.476
21:52 1018 30.06 847 25.01 5.9 42.6 89 4.2 39.6 -88.3 -3.476
21:53 1018 30.06 847 25.01 5.9 42.6 89 4.2 39.6 -88.3 -3.476
21:54 1018 30.06 847 25.01 6 42.7 89 4.3 39.7 -88.3 -3.476
21:55 1018 30.06 847 25.01 6 42.8 89 4.3 39.8 -88.3 -3.476
21:56 1018 30.06 847 25.01 5.9 42.7 89 4.2 39.6 -88.3 -3.476
21:57 1018 30.06 847 25.01 5.9 42.6 89 4.2 39.6 -88.3 -3.476
21:58 1018 30.06 847 25.01 5.8 42.5 89 4.2 39.6 -88.3 -3.476
21:59 1018 30.06 847 25.01 5.8 42.4 90 4.2 39.6 -88.3 -3.476
22:00 1018 30.06 847 25.01 5.8 42.4 90 4.2 39.6 -88.3 -3.476
22:01 1018 30.06 847 25.01 5.8 42.4 90 4.2 39.6 -88.3 -3.476
22:02 1018 30.06 847 25.01 5.8 42.4 89 4.2 39.5 -88.3 -3.476
22:03 1018 30.06 847 25.01 5.8 42.5 89 4.1 39.5 -88.3 -3.476
22:04 1018 30.06 847 25.01 5.7 42.3 89 4.1 39.4 -88.3 -3.476
22:05 1018 30.06 847 25.01 5.8 42.4 89 4.1 39.4 -88.3 -3.476
22:06 1018 30.06 847 25.01 5.8 42.4 88 4 39.1 -88.3 -3.476
22:07 1018 30.06 847 25.01 5.7 42.3 88 3.8 38.9 -88.3 -3.476
22:08 1018 30.06 847 25.01 5.6 42.1 88 3.8 38.8 -88.3 -3.476
22:09 1018 30.06 847 25.01 5.5 41.9 88 3.6 38.6 -88.3 -3.476
22:10 1018 30.06 847 25.01 5.4 41.6 88 3.6 38.5 -88.3 -3.476
22:11 1018 30.06 847 25.01 5.3 41.5 89 3.7 38.6 -88.3 -3.476
22:12 1018 30.06 847 25.01 5.3 41.5 89 3.6 38.5 -88.3 -3.476
22:13 1018 30.06 847 25.01 5.3 41.5 89 3.6 38.4 -88.4 -3.48
22:14 1018 30.06 847 25.01 5.3 41.5 89 3.6 38.4 -88.4 -3.48
22:15 1018 30.06 847 25.01 5.2 41.4 89 3.5 38.3 -88.4 -3.48
22:16 1018 30.06 847 25.01 5.2 41.3 89 3.5 38.3 -88.4 -3.48
22:17 1018 30.06 847 25.01 5.2 41.3 89 3.5 38.3 -88.4 -3.48
22:18 1018 30.06 847 25.01 5.2 41.4 89 3.5 38.3 -88.4 -3.48
22:19 1018 30.06 847 25.01 5.2 41.4 88 3.4 38.1 -88.4 -3.48
22:20 1018 30.06 847 25.01 5.3 41.5 88 3.5 38.2 -88.4 -3.48
22:21 1018 30.06 847 25.01 5.4 41.7 87 3.4 38.2 -88.4 -3.48
22:22 1018 30.06 847 25.01 5.6 42.1 86 3.4 38.2 -88.4 -3.48
22:23 1018 30.06 847 25.01 5.8 42.5 84 3.4 38.1 -88.5 -3.484
22:24 1018 30.06 847 25.01 5.9 42.6 84 3.4 38.2 -88.5 -3.484
22:25 1018 30.06 847 25.01 5.9 42.6 85 3.5 38.3 -88.5 -3.484
22:26 1018 30.06 847 25.01 5.9 42.6 85 3.5 38.3 -88.5 -3.484
22:27 1018 30.06 847 25.01 5.9 42.7 85 3.6 38.5 -88.5 -3.484
22:28 1018 30.06 847 25.01 6 42.8 85 3.6 38.5 -88.5 -3.484
22:29 1018 30.06 847 25.01 6 42.9 85 3.6 38.6 -88.5 -3.484
22:30 1018 30.06 847 25.01 6.2 43.1 84 3.6 38.5 -88.6 -3.488
22:31 1018 30.06 847 25.01 6.2 43.2 83 3.5 38.4 -88.6 -3.488
22:32 1018 30.06 847 25.01 6.3 43.4 82 3.6 38.4 -88.6 -3.488
22:33 1018 30.06 847 25.01 6.4 43.5 82 3.5 38.4 -88.6 -3.488
22:34 1018 30.06 847 25.01 6.5 43.6 81 3.5 38.3 -88.6 -3.488
22:35 1018 30.06 847 25.01 6.6 43.8 81 3.5 38.4 -88.7 -3.492
22:36 1018 30.06 847 25.01 6.6 43.9 81 3.5 38.4 -88.7 -3.492
22:37 1018 30.06 847 25.01 6.6 43.9 81 3.5 38.3 -88.7 -3.492
22:38 1018 30.06 847 25.01 6.7 44 81 3.6 38.4 -88.7 -3.492
22:39 1018 30.06 847 25.01 6.6 43.9 81 3.6 38.4 -88.7 -3.492
22:40 1018 30.06 847 25.01 6.6 43.9 81 3.6 38.4 -88.7 -3.492
22:41 1018 30.06 847 25.01 6.5 43.8 81 3.5 38.4 -88.7 -3.492
22:42 1018 30.06 847 25.01 6.6 43.8 81 3.6 38.5 -88.8 -3.496
22:43 1018 30.06 847 25.01 6.5 43.6 82 3.6 38.5 -88.8 -3.496
22:44 1018 30.06 847 25.01 6.4 43.5 83 3.6 38.5 -88.8 -3.496
22:45 1018 30.06 847 25.01 6.3 43.3 83 3.6 38.5 -88.8 -3.496
22:46 1018 30.06 847 25.01 6.2 43.2 83 3.6 38.4 -88.8 -3.496
22:47 1018 30.06 847 25.01 6.3 43.3 83 3.6 38.4 -88.8 -3.496
22:48 1018 30.06 847 25.01 6.3 43.4 83 3.6 38.4 -88.8 -3.496
22:49 1018 30.06 847 25.01 6.3 43.4 82 3.5 38.3 -88.8 -3.496
22:50 1018 30.06 847 25.01 6.4 43.5 82 3.5 38.3 -88.8 -3.496
22:51 1018 30.06 847 25.01 6.5 43.7 82 3.6 38.4 -88.8 -3.496
22:52 1018 30.06 847 25.01 6.6 43.8 81 3.6 38.5 -88.8 -3.496
22:53 1018 30.06 847 25.01 6.6 43.9 81 3.6 38.5 -88.8 -3.496
22:54 1018 30.06 847 25.01 6.6 43.9 81 3.6 38.5 -88.8 -3.496
22:55 1018 30.06 847 25.01 6.6 44 81 3.6 38.5 -88.9 -3.5
22:56 1018 30.06 847 25.01 6.7 44 80 3.6 38.4 -88.9 -3.5
22:57 1018 30.06 847 25.01 6.7 44 81 3.6 38.4 -88.9 -3.5
22:58 1018 30.06 847 25.01 6.7 44 81 3.6 38.5 -88.9 -3.5
22:59 1018 30.06 847 25.01 6.7 44.1 80 3.6 38.4 -88.9 -3.5
23:00 1018 30.06 847 25.01 6.7 44.1 79 3.4 38.2 -88.9 -3.5
23:01 1018 30.06 847 25.01 6.8 44.2 80 3.6 38.5 -88.9 -3.5
23:02 1018 30.06 847 25.01 6.7 44.1 80 3.6 38.5 -88.9 -3.5
23:03 1018 30.06 847 25.01 6.7 44.1 81 3.6 38.6 -88.9 -3.5
23:04 1018 30.06 847 25.01 6.6 43.9 81 3.6 38.6 -88.9 -3.5
23:05 1018 30.06 847 25.01 6.6 43.8 82 3.6 38.6 -88.9 -3.5
23:06 1018 30.06 847 25.01 6.5 43.8 82 3.6 38.6 -88.9 -3.5
23:07 1018 30.06 847 25.01 6.5 43.7 82 3.6 38.4 -88.9 -3.5
23:08 1018 30.06 847 25.01 6.5 43.7 81 3.5 38.3 -88.9 -3.5
23:09 1018 30.06 847 25.01 6.5 43.8 80 3.4 38.1 -88.9 -3.5
23:10 1018 30.06 847 25.01 6.6 43.9 80 3.4 38.1 -88.9 -3.5
23:11 1018 30.06 847 25.01 6.6 43.9 80 3.3 38 -88.9 -3.5
23:12 1018 30.06 847 25.01 6.6 43.9 79 3.3 38 -89 -3.504
23:13 1018 30.06 847 25.01 6.6 43.9 79 3.3 37.9 -89 -3.504
23:14 1017 30.03 847 25.01 6.6 43.8 79 3.2 37.8 -89 -3.504
23:15 1017 30.03 847 25.01 6.6 43.8 79 3.2 37.8 -89 -3.504
23:16 1017 30.03 847 25.01 6.5 43.7 79 3.2 37.8 -89 -3.504
23:17 1017 30.03 847 25.01 6.5 43.7 79 3.1 37.7 -89 -3.504
23:18 1018 30.06 847 25.01 6.5 43.6 80 3.2 37.7 -89 -3.504
23:19 1018 30.06 847 25.01 6.4 43.6 79 3.1 37.7 -89 -3.504
23:20 1018 30.06 847 25.01 6.4 43.6 79 3.1 37.6 -89 -3.504
23:21 1018 30.06 847 25.01 6.4 43.5 80 3.1 37.7 -89 -3.504
23:22 1018 30.06 847 25.01 6.3 43.4 80 3.1 37.6 -89 -3.504
23:23 1018 30.06 847 25.01 6.3 43.4 80 3.1 37.6 -89 -3.504
23:24 1018 30.06 847 25.01 6.3 43.4 80 3.1 37.6 -89 -3.504
23:25 1018 30.06 847 25.01 6.3 43.3 80 3 37.5 -89 -3.504
23:26 1018 30.06 847 25.01 6.3 43.4 80 3 37.5 -89 -3.504
23:27 1018 30.06 847 25.01 6.3 43.4 80 3 37.5 -89 -3.504
23:28 1018 30.06 847 25.01 6.3 43.3 79 3 37.4 -89 -3.504
23:29 1018 30.06 847 25.01 6.2 43.2 80 3 37.4 -89 -3.504
23:30 1018 30.06 847 25.01 6.2 43.1 80 2.9 37.3 -89 -3.504
23:31 1018 30.06 847 25.01 6.1 43.1 80 3 37.3 -89 -3.504
23:32 1018 30.06 847 25.01 6.1 43 80 3 37.3 -89 -3.504
23:33 1018 30.06 847 25.01 6.1 42.9 80 2.9 37.3 -89 -3.504
23:34 1018 30.06 847 25.01 6 42.9 80 2.9 37.2 -89 -3.504
23:35 1017 30.03 847 25.01 6 42.8 80 2.8 37 -89 -3.504
23:36 1018 30.06 847 25.01 6 42.7 80 2.8 37 -89 -3.504
23:37 1018 30.06 847 25.01 5.9 42.6 80 2.8 37 -89 -3.504
23:38 1018 30.06 847 25.01 5.9 42.5 80 2.7 36.9 -89 -3.504
23:39 1018 30.06 847 25.01 5.8 42.4 80 2.7 36.8 -89 -3.504
23:40 1018 30.06 847 25.01 5.7 42.3 80 2.6 36.7 -89 -3.504
23:41 1017 30.03 847 25.01 5.6 42.1 81 2.7 36.8 -89 -3.504
23:42 1017 30.03 847 25.01 5.6 42 81 2.6 36.7 -89 -3.504
23:43 1017 30.03 847 25.01 5.5 41.9 81 2.5 36.5 -89 -3.504
23:44 1017 30.03 847 25.01 5.4 41.8 81 2.4 36.4 -89 -3.504
23:45 1017 30.03 847 25.01 5.4 41.8 81 2.4 36.3 -89 -3.504
23:46 1017 30.03 846 24.98 5.4 41.6 81 2.3 36.2 -89 -3.504
23:47 1017 30.03 846 24.98 5.3 41.6 81 2.4 36.3 -89 -3.504
23:48 1017 30.03 846 24.98 5.2 41.4 81 2.2 36 -89 -3.504
23:49 1017 30.03 846 24.98 5.1 41.1 82 2.2 36 -89 -3.504
23:50 1017 30.03 847 25.01 4.9 40.9 83 2.2 36 -89 -3.504
23:51 1017 30.03 847 25.01 4.9 40.8 83 2.3 36.2 -89 -3.504
23:52 1017 30.03 846 24.98 4.9 40.9 83 2.3 36.2 -89 -3.504
23:53 1017 30.03 846 24.98 5 41 83 2.4 36.2 -89 -3.504
23:54 1017 30.03 846 24.98 5.1 41.2 82 2.4 36.3 -89 -3.504
23:55 1017 30.03 846 24.98 5.2 41.4 82 2.4 36.3 -89 -3.504
23:56 1017 30.03 846 24.98 5.3 41.5 82 2.4 36.3 -89 -3.504
23:57 1017 30.03 846 24.98 5.3 41.5 82 2.4 36.3 -89 -3.504
23:58 1017 30.03 846 24.98 5.1 41.3 81 2.2 35.9 -89 -3.504
23:59 1017 30.03 846 24.98 4.9 40.8 83 2.3 36.1 -89 -3.504
24:00 1017 30.03 846 24.98 4.7 40.5 85 2.4 36.3 -89 -3.504